<?xml version="1.0" encoding="UTF-8" standalone="no" ?><gpx xmlns="http://www.topografix.com/GPX/1/1" xmlns:gpxx="http://www.garmin.com/xmlschemas/GpxExtensions/v3" xmlns:wptx1="http://www.garmin.com/xmlschemas/WaypointExtension/v1" xmlns:gpxtpx="http://www.garmin.com/xmlschemas/TrackPointExtension/v1" creator="Dakota 20" version="1.1" xmlns:xsi="http://www.w3.org/2001/XMLSchema-instance" xsi:schemaLocation="http://www.topografix.com/GPX/1/1 http://www.topografix.com/GPX/1/1/gpx.xsd http://www.garmin.com/xmlschemas/GpxExtensions/v3 http://www8.garmin.com/xmlschemas/GpxExtensionsv3.xsd http://www.garmin.com/xmlschemas/WaypointExtension/v1 http://www8.garmin.com/xmlschemas/WaypointExtensionv1.xsd http://www.garmin.com/xmlschemas/TrackPointExtension/v1 http://www.garmin.com/xmlschemas/TrackPointExtensionv1.xsd"><metadata><link href="http://www.garmin.com"><text>Garmin International</text></link><time>2014-06-25T14:53:56Z</time></metadata><trk><name>Current Track: 25 JUN 2014 10:04</name><extensions><gpxx:TrackExtension><gpxx:DisplayColor>Cyan</gpxx:DisplayColor></gpxx:TrackExtension></extensions><trkseg><trkpt lat="51.9665839523" lon="-2.1984604653"><ele>18.40</ele><time>2014-06-25T09:04:20Z</time></trkpt><trkpt lat="51.9665925018" lon="-2.1984537598"><ele>17.92</ele><time>2014-06-25T09:04:38Z</time></trkpt><trkpt lat="51.9665911607" lon="-2.1984445397"><ele>17.44</ele><time>2014-06-25T09:04:52Z</time></trkpt><trkpt lat="51.9665855449" lon="-2.1984170470"><ele>16.96</ele><time>2014-06-25T09:05:08Z</time></trkpt><trkpt lat="51.9665823597" lon="-2.1983986069"><ele>17.92</ele><time>2014-06-25T09:05:09Z</time></trkpt><trkpt lat="51.9665041566" lon="-2.1982318908"><ele>19.36</ele><time>2014-06-25T09:05:22Z</time></trkpt><trkpt lat="51.9664303120" lon="-2.1982378419"><ele>18.88</ele><time>2014-06-25T09:05:33Z</time></trkpt><trkpt lat="51.9664056692" lon="-2.1982678492"><ele>18.40</ele><time>2014-06-25T09:05:45Z</time></trkpt><trkpt lat="51.9663992152" lon="-2.1982742194"><ele>18.88</ele><time>2014-06-25T09:05:52Z</time></trkpt><trkpt lat="51.9663778413" lon="-2.1983031370"><ele>18.88</ele><time>2014-06-25T09:06:05Z</time></trkpt><trkpt lat="51.9663691241" lon="-2.1983160451"><ele>18.88</ele><time>2014-06-25T09:06:23Z</time></trkpt><trkpt lat="51.9662979618" lon="-2.1983722039"><ele>18.88</ele><time>2014-06-25T09:06:41Z</time></trkpt><trkpt lat="51.9662443176" lon="-2.1984189749"><ele>18.88</ele><time>2014-06-25T09:06:46Z</time></trkpt><trkpt lat="51.9661304075" lon="-2.1985104214"><ele>18.88</ele><time>2014-06-25T09:06:59Z</time></trkpt><trkpt lat="51.9660801161" lon="-2.1985618863"><ele>18.40</ele><time>2014-06-25T09:07:04Z</time></trkpt><trkpt lat="51.9659716543" lon="-2.1986816637"><ele>18.88</ele><time>2014-06-25T09:07:17Z</time></trkpt><trkpt lat="51.9658518769" lon="-2.1988575999"><ele>18.88</ele><time>2014-06-25T09:07:32Z</time></trkpt><trkpt lat="51.9657637831" lon="-2.1990060434"><ele>18.88</ele><time>2014-06-25T09:07:47Z</time></trkpt><trkpt lat="51.9656854961" lon="-2.1991275810"><ele>18.88</ele><time>2014-06-25T09:08:00Z</time></trkpt><trkpt lat="51.9656098913" lon="-2.1992505435"><ele>18.88</ele><time>2014-06-25T09:08:11Z</time></trkpt><trkpt lat="51.9655886851" lon="-2.1992788743"><ele>18.40</ele><time>2014-06-25T09:08:14Z</time></trkpt><trkpt lat="51.9655273296" lon="-2.1993536409"><ele>18.40</ele><time>2014-06-25T09:08:21Z</time></trkpt><trkpt lat="51.9655103143" lon="-2.1993725840"><ele>18.40</ele><time>2014-06-25T09:08:23Z</time></trkpt><trkpt lat="51.9654940534" lon="-2.1993890963"><ele>18.40</ele><time>2014-06-25T09:08:25Z</time></trkpt><trkpt lat="51.9654061273" lon="-2.1995183453"><ele>17.92</ele><time>2014-06-25T09:08:37Z</time></trkpt><trkpt lat="51.9653913751" lon="-2.1995649487"><ele>17.92</ele><time>2014-06-25T09:08:51Z</time></trkpt><trkpt lat="51.9653912913" lon="-2.1995685529"><ele>17.44</ele><time>2014-06-25T09:09:10Z</time></trkpt><trkpt lat="51.9653843343" lon="-2.1996167488"><ele>18.40</ele><time>2014-06-25T09:09:23Z</time></trkpt><trkpt lat="51.9653732702" lon="-2.1996517014"><ele>18.40</ele><time>2014-06-25T09:09:37Z</time></trkpt><trkpt lat="51.9653590210" lon="-2.1996687166"><ele>18.40</ele><time>2014-06-25T09:09:51Z</time></trkpt><trkpt lat="51.9653564226" lon="-2.1996676270"><ele>18.40</ele><time>2014-06-25T09:10:10Z</time></trkpt><trkpt lat="51.9653223082" lon="-2.1997323353"><ele>18.40</ele><time>2014-06-25T09:10:22Z</time></trkpt><trkpt lat="51.9653261639" lon="-2.1997304074"><ele>17.92</ele><time>2014-06-25T09:10:46Z</time></trkpt><trkpt lat="51.9652859308" lon="-2.1998259611"><ele>17.92</ele><time>2014-06-25T09:10:59Z</time></trkpt><trkpt lat="51.9652270060" lon="-2.1999086067"><ele>18.40</ele><time>2014-06-25T09:11:11Z</time></trkpt><trkpt lat="51.9651861861" lon="-2.1999897435"><ele>17.92</ele><time>2014-06-25T09:11:20Z</time></trkpt><trkpt lat="51.9651676621" lon="-2.2000215948"><ele>18.40</ele><time>2014-06-25T09:11:23Z</time></trkpt><trkpt lat="51.9650979247" lon="-2.2001067549"><ele>17.92</ele><time>2014-06-25T09:11:34Z</time></trkpt><trkpt lat="51.9650194701" lon="-2.2002330702"><ele>17.44</ele><time>2014-06-25T09:11:46Z</time></trkpt><trkpt lat="51.9649508223" lon="-2.2003316414"><ele>17.92</ele><time>2014-06-25T09:11:57Z</time></trkpt><trkpt lat="51.9648765586" lon="-2.2004635725"><ele>17.92</ele><time>2014-06-25T09:12:11Z</time></trkpt><trkpt lat="51.9647997804" lon="-2.2005907260"><ele>17.92</ele><time>2014-06-25T09:12:23Z</time></trkpt><trkpt lat="51.9647285342" lon="-2.2006971762"><ele>17.92</ele><time>2014-06-25T09:12:33Z</time></trkpt><trkpt lat="51.9646602217" lon="-2.2007973399"><ele>17.92</ele><time>2014-06-25T09:12:43Z</time></trkpt><trkpt lat="51.9646124449" lon="-2.2008739505"><ele>18.40</ele><time>2014-06-25T09:12:50Z</time></trkpt><trkpt lat="51.9645702839" lon="-2.2009702586"><ele>18.40</ele><time>2014-06-25T09:12:59Z</time></trkpt><trkpt lat="51.9645116944" lon="-2.2010548320"><ele>18.40</ele><time>2014-06-25T09:13:11Z</time></trkpt><trkpt lat="51.9644660130" lon="-2.2011335380"><ele>18.88</ele><time>2014-06-25T09:13:21Z</time></trkpt><trkpt lat="51.9644628279" lon="-2.2011451051"><ele>18.40</ele><time>2014-06-25T09:13:22Z</time></trkpt><trkpt lat="51.9643707946" lon="-2.2012772039"><ele>18.40</ele><time>2014-06-25T09:13:36Z</time></trkpt><trkpt lat="51.9643506780" lon="-2.2013132460"><ele>18.40</ele><time>2014-06-25T09:13:40Z</time></trkpt><trkpt lat="51.9642682839" lon="-2.2014632821"><ele>18.40</ele><time>2014-06-25T09:13:55Z</time></trkpt><trkpt lat="51.9641965348" lon="-2.2016215324"><ele>17.92</ele><time>2014-06-25T09:14:09Z</time></trkpt><trkpt lat="51.9641387835" lon="-2.2017351910"><ele>18.40</ele><time>2014-06-25T09:14:20Z</time></trkpt><trkpt lat="51.9640508574" lon="-2.2018884961"><ele>18.40</ele><time>2014-06-25T09:14:34Z</time></trkpt><trkpt lat="51.9639881607" lon="-2.2020391189"><ele>18.40</ele><time>2014-06-25T09:14:46Z</time></trkpt><trkpt lat="51.9639050961" lon="-2.2021956090"><ele>17.92</ele><time>2014-06-25T09:15:01Z</time></trkpt><trkpt lat="51.9638728257" lon="-2.2022633348"><ele>18.40</ele><time>2014-06-25T09:15:07Z</time></trkpt><trkpt lat="51.9638304971" lon="-2.2023780830"><ele>18.40</ele><time>2014-06-25T09:15:15Z</time></trkpt><trkpt lat="51.9637538865" lon="-2.2025144566"><ele>18.40</ele><time>2014-06-25T09:15:28Z</time></trkpt><trkpt lat="51.9636862446" lon="-2.2026825137"><ele>18.40</ele><time>2014-06-25T09:15:41Z</time></trkpt><trkpt lat="51.9636786170" lon="-2.2027031332"><ele>18.88</ele><time>2014-06-25T09:15:43Z</time></trkpt><trkpt lat="51.9636456762" lon="-2.2027719487"><ele>18.40</ele><time>2014-06-25T09:15:49Z</time></trkpt><trkpt lat="51.9636263140" lon="-2.2028058954"><ele>18.40</ele><time>2014-06-25T09:15:52Z</time></trkpt><trkpt lat="51.9635619409" lon="-2.2029567696"><ele>18.40</ele><time>2014-06-25T09:16:05Z</time></trkpt><trkpt lat="51.9634983223" lon="-2.2031208035"><ele>17.92</ele><time>2014-06-25T09:16:17Z</time></trkpt><trkpt lat="51.9634736795" lon="-2.2031753697"><ele>18.40</ele><time>2014-06-25T09:16:22Z</time></trkpt><trkpt lat="51.9634306803" lon="-2.2033320274"><ele>18.40</ele><time>2014-06-25T09:16:35Z</time></trkpt><trkpt lat="51.9633982424" lon="-2.2034181934"><ele>18.40</ele><time>2014-06-25T09:16:42Z</time></trkpt><trkpt lat="51.9633238111" lon="-2.2036108933"><ele>18.40</ele><time>2014-06-25T09:16:58Z</time></trkpt><trkpt lat="51.9632731844" lon="-2.2037611809"><ele>18.40</ele><time>2014-06-25T09:17:11Z</time></trkpt><trkpt lat="51.9632180315" lon="-2.2039293218"><ele>18.40</ele><time>2014-06-25T09:17:25Z</time></trkpt><trkpt lat="51.9631886948" lon="-2.2040097881"><ele>18.88</ele><time>2014-06-25T09:17:32Z</time></trkpt><trkpt lat="51.9631303567" lon="-2.2041992191"><ele>18.40</ele><time>2014-06-25T09:17:46Z</time></trkpt><trkpt lat="51.9630764611" lon="-2.2043226007"><ele>17.92</ele><time>2014-06-25T09:17:57Z</time></trkpt><trkpt lat="51.9630186260" lon="-2.2044685297"><ele>17.92</ele><time>2014-06-25T09:18:09Z</time></trkpt><trkpt lat="51.9629967492" lon="-2.2045309749"><ele>17.92</ele><time>2014-06-25T09:18:14Z</time></trkpt><trkpt lat="51.9629430212" lon="-2.2046706174"><ele>18.88</ele><time>2014-06-25T09:18:26Z</time></trkpt><trkpt lat="51.9628964178" lon="-2.2047637403"><ele>18.40</ele><time>2014-06-25T09:18:33Z</time></trkpt><trkpt lat="51.9628536701" lon="-2.2049272712"><ele>18.40</ele><time>2014-06-25T09:18:46Z</time></trkpt><trkpt lat="51.9628525805" lon="-2.2049607150"><ele>18.40</ele><time>2014-06-25T09:18:48Z</time></trkpt><trkpt lat="51.9628311228" lon="-2.2050089110"><ele>18.40</ele><time>2014-06-25T09:18:53Z</time></trkpt><trkpt lat="51.9628219865" lon="-2.2050463781"><ele>18.40</ele><time>2014-06-25T09:18:56Z</time></trkpt><trkpt lat="51.9627617206" lon="-2.2052321211"><ele>18.40</ele><time>2014-06-25T09:19:10Z</time></trkpt><trkpt lat="51.9627032150" lon="-2.2054001782"><ele>18.40</ele><time>2014-06-25T09:19:25Z</time></trkpt><trkpt lat="51.9626922347" lon="-2.2054311074"><ele>18.40</ele><time>2014-06-25T09:19:28Z</time></trkpt><trkpt lat="51.9626806676" lon="-2.2054575104"><ele>18.40</ele><time>2014-06-25T09:19:30Z</time></trkpt><trkpt lat="51.9626224972" lon="-2.2056204546"><ele>18.88</ele><time>2014-06-25T09:19:44Z</time></trkpt><trkpt lat="51.9626002014" lon="-2.2056689858"><ele>18.88</ele><time>2014-06-25T09:19:48Z</time></trkpt><trkpt lat="51.9625421148" lon="-2.2058305051"><ele>18.40</ele><time>2014-06-25T09:20:01Z</time></trkpt><trkpt lat="51.9625005405" lon="-2.2059589997"><ele>18.40</ele><time>2014-06-25T09:20:12Z</time></trkpt><trkpt lat="51.9624457229" lon="-2.2061143164"><ele>18.88</ele><time>2014-06-25T09:20:24Z</time></trkpt><trkpt lat="51.9623838644" lon="-2.2062818706"><ele>18.40</ele><time>2014-06-25T09:20:38Z</time></trkpt><trkpt lat="51.9623292983" lon="-2.2064349242"><ele>18.40</ele><time>2014-06-25T09:20:50Z</time></trkpt><trkpt lat="51.9622702897" lon="-2.2066163924"><ele>18.88</ele><time>2014-06-25T09:21:03Z</time></trkpt><trkpt lat="51.9622668531" lon="-2.2066215053"><ele>18.88</ele><time>2014-06-25T09:21:04Z</time></trkpt><trkpt lat="51.9622282125" lon="-2.2067355830"><ele>18.88</ele><time>2014-06-25T09:21:13Z</time></trkpt><trkpt lat="51.9621733110" lon="-2.2068865411"><ele>18.40</ele><time>2014-06-25T09:21:26Z</time></trkpt><trkpt lat="51.9621695392" lon="-2.2068978567"><ele>18.88</ele><time>2014-06-25T09:21:27Z</time></trkpt><trkpt lat="51.9621579722" lon="-2.2069384251"><ele>18.88</ele><time>2014-06-25T09:21:30Z</time></trkpt><trkpt lat="51.9621145539" lon="-2.2070503235"><ele>18.88</ele><time>2014-06-25T09:21:39Z</time></trkpt><trkpt lat="51.9620542042" lon="-2.2072432749"><ele>18.88</ele><time>2014-06-25T09:21:52Z</time></trkpt><trkpt lat="51.9619934354" lon="-2.2074098233"><ele>18.88</ele><time>2014-06-25T09:22:05Z</time></trkpt><trkpt lat="51.9619385339" lon="-2.2075660620"><ele>19.36</ele><time>2014-06-25T09:22:17Z</time></trkpt><trkpt lat="51.9618901704" lon="-2.2077073809"><ele>18.88</ele><time>2014-06-25T09:22:28Z</time></trkpt><trkpt lat="51.9618309941" lon="-2.2078616917"><ele>18.40</ele><time>2014-06-25T09:22:39Z</time></trkpt><trkpt lat="51.9618170802" lon="-2.2078960575"><ele>18.88</ele><time>2014-06-25T09:22:42Z</time></trkpt><trkpt lat="51.9618050940" lon="-2.2079250589"><ele>18.88</ele><time>2014-06-25T09:22:44Z</time></trkpt><trkpt lat="51.9617836364" lon="-2.2079833969"><ele>18.88</ele><time>2014-06-25T09:22:49Z</time></trkpt><trkpt lat="51.9617364462" lon="-2.2081461735"><ele>18.88</ele><time>2014-06-25T09:23:02Z</time></trkpt><trkpt lat="51.9617260527" lon="-2.2082914319"><ele>18.88</ele><time>2014-06-25T09:23:13Z</time></trkpt><trkpt lat="51.9616908487" lon="-2.2083737422"><ele>18.88</ele><time>2014-06-25T09:23:26Z</time></trkpt><trkpt lat="51.9616914354" lon="-2.2083563916"><ele>19.36</ele><time>2014-06-25T09:23:39Z</time></trkpt><trkpt lat="51.9616924413" lon="-2.2083586548"><ele>19.36</ele><time>2014-06-25T09:23:53Z</time></trkpt><trkpt lat="51.9616731629" lon="-2.2083771788"><ele>19.36</ele><time>2014-06-25T09:24:08Z</time></trkpt><trkpt lat="51.9616404735" lon="-2.2084133048"><ele>19.36</ele><time>2014-06-25T09:24:11Z</time></trkpt><trkpt lat="51.9616087060" lon="-2.2084803600"><ele>19.36</ele><time>2014-06-25T09:24:16Z</time></trkpt><trkpt lat="51.9616125617" lon="-2.2085333336"><ele>18.88</ele><time>2014-06-25T09:24:19Z</time></trkpt><trkpt lat="51.9616100471" lon="-2.2085677832"><ele>18.88</ele><time>2014-06-25T09:24:21Z</time></trkpt><trkpt lat="51.9616146572" lon="-2.2085987963"><ele>18.88</ele><time>2014-06-25T09:24:23Z</time></trkpt><trkpt lat="51.9616105501" lon="-2.2086547874"><ele>18.40</ele><time>2014-06-25T09:24:26Z</time></trkpt><trkpt lat="51.9615994859" lon="-2.2087698709"><ele>18.40</ele><time>2014-06-25T09:24:33Z</time></trkpt><trkpt lat="51.9615895115" lon="-2.2088123672"><ele>18.40</ele><time>2014-06-25T09:24:36Z</time></trkpt><trkpt lat="51.9615782797" lon="-2.2088945098"><ele>17.92</ele><time>2014-06-25T09:24:41Z</time></trkpt><trkpt lat="51.9615091290" lon="-2.2090744693"><ele>18.40</ele><time>2014-06-25T09:24:53Z</time></trkpt><trkpt lat="51.9614258967" lon="-2.2092248406"><ele>18.40</ele><time>2014-06-25T09:25:07Z</time></trkpt><trkpt lat="51.9613484479" lon="-2.2093371581"><ele>18.40</ele><time>2014-06-25T09:25:20Z</time></trkpt><trkpt lat="51.9612776209" lon="-2.2094480507"><ele>17.92</ele><time>2014-06-25T09:25:37Z</time></trkpt><trkpt lat="51.9612308498" lon="-2.2095201351"><ele>17.92</ele><time>2014-06-25T09:25:52Z</time></trkpt><trkpt lat="51.9611950591" lon="-2.2096814029"><ele>17.92</ele><time>2014-06-25T09:26:06Z</time></trkpt><trkpt lat="51.9611596875" lon="-2.2098188661"><ele>17.44</ele><time>2014-06-25T09:26:19Z</time></trkpt><trkpt lat="51.9611344580" lon="-2.2099126596"><ele>17.92</ele><time>2014-06-25T09:26:29Z</time></trkpt><trkpt lat="51.9611093961" lon="-2.2100177687"><ele>17.92</ele><time>2014-06-25T09:26:39Z</time></trkpt><trkpt lat="51.9610446040" lon="-2.2100897692"><ele>17.92</ele><time>2014-06-25T09:26:51Z</time></trkpt><trkpt lat="51.9610574283" lon="-2.2101507895"><ele>17.44</ele><time>2014-06-25T09:27:03Z</time></trkpt><trkpt lat="51.9610425923" lon="-2.2102440801"><ele>17.44</ele><time>2014-06-25T09:27:12Z</time></trkpt><trkpt lat="51.9609886967" lon="-2.2103325929"><ele>17.92</ele><time>2014-06-25T09:27:19Z</time></trkpt><trkpt lat="51.9609613717" lon="-2.2103735805"><ele>17.44</ele><time>2014-06-25T09:27:23Z</time></trkpt><trkpt lat="51.9609469548" lon="-2.2103957087"><ele>17.92</ele><time>2014-06-25T09:27:25Z</time></trkpt><trkpt lat="51.9609087333" lon="-2.2104219440"><ele>17.92</ele><time>2014-06-25T09:27:30Z</time></trkpt><trkpt lat="51.9608374871" lon="-2.2104413062"><ele>17.44</ele><time>2014-06-25T09:27:39Z</time></trkpt><trkpt lat="51.9608177897" lon="-2.2104496881"><ele>17.44</ele><time>2014-06-25T09:27:41Z</time></trkpt><trkpt lat="51.9607838430" lon="-2.2104516998"><ele>17.44</ele><time>2014-06-25T09:27:45Z</time></trkpt><trkpt lat="51.9607174583" lon="-2.2103666235"><ele>18.40</ele><time>2014-06-25T09:27:56Z</time></trkpt><trkpt lat="51.9607001077" lon="-2.2103537153"><ele>18.40</ele><time>2014-06-25T09:27:58Z</time></trkpt><trkpt lat="51.9606245030" lon="-2.2103960440"><ele>18.88</ele><time>2014-06-25T09:28:10Z</time></trkpt><trkpt lat="51.9606010336" lon="-2.2104747500"><ele>18.88</ele><time>2014-06-25T09:28:17Z</time></trkpt><trkpt lat="51.9605417736" lon="-2.2106034122"><ele>18.88</ele><time>2014-06-25T09:28:29Z</time></trkpt><trkpt lat="51.9605253451" lon="-2.2106287256"><ele>18.88</ele><time>2014-06-25T09:28:31Z</time></trkpt><trkpt lat="51.9604586251" lon="-2.2107742354"><ele>18.88</ele><time>2014-06-25T09:28:45Z</time></trkpt><trkpt lat="51.9604488183" lon="-2.2107951064"><ele>18.88</ele><time>2014-06-25T09:28:47Z</time></trkpt><trkpt lat="51.9603871275" lon="-2.2109164763"><ele>18.88</ele><time>2014-06-25T09:28:59Z</time></trkpt><trkpt lat="51.9603425357" lon="-2.2110548615"><ele>19.36</ele><time>2014-06-25T09:29:13Z</time></trkpt><trkpt lat="51.9603060745" lon="-2.2111157980"><ele>18.88</ele><time>2014-06-25T09:29:24Z</time></trkpt><trkpt lat="51.9602076709" lon="-2.2112893872"><ele>18.88</ele><time>2014-06-25T09:29:38Z</time></trkpt><trkpt lat="51.9601242710" lon="-2.2114377469"><ele>18.88</ele><time>2014-06-25T09:29:52Z</time></trkpt><trkpt lat="51.9600909948" lon="-2.2114903014"><ele>18.88</ele><time>2014-06-25T09:29:57Z</time></trkpt><trkpt lat="51.9600500911" lon="-2.2115452867"><ele>18.88</ele><time>2014-06-25T09:30:14Z</time></trkpt><trkpt lat="51.9600003026" lon="-2.2116398346"><ele>18.88</ele><time>2014-06-25T09:30:22Z</time></trkpt><trkpt lat="51.9599376898" lon="-2.2117268387"><ele>18.88</ele><time>2014-06-25T09:30:34Z</time></trkpt><trkpt lat="51.9598870631" lon="-2.2118178662"><ele>18.88</ele><time>2014-06-25T09:30:43Z</time></trkpt><trkpt lat="51.9598127995" lon="-2.2118949797"><ele>18.88</ele><time>2014-06-25T09:30:54Z</time></trkpt><trkpt lat="51.9597509410" lon="-2.2119881865"><ele>19.36</ele><time>2014-06-25T09:31:06Z</time></trkpt><trkpt lat="51.9596473407" lon="-2.2121015098"><ele>18.88</ele><time>2014-06-25T09:31:20Z</time></trkpt><trkpt lat="51.9595714007" lon="-2.2122016735"><ele>18.88</ele><time>2014-06-25T09:31:32Z</time></trkpt><trkpt lat="51.9595591631" lon="-2.2122326028"><ele>18.88</ele><time>2014-06-25T09:31:34Z</time></trkpt><trkpt lat="51.9594429061" lon="-2.2123323474"><ele>18.88</ele><time>2014-06-25T09:31:49Z</time></trkpt><trkpt lat="51.9593312591" lon="-2.2124357801"><ele>18.88</ele><time>2014-06-25T09:32:03Z</time></trkpt><trkpt lat="51.9592374656" lon="-2.2125009075"><ele>18.88</ele><time>2014-06-25T09:32:15Z</time></trkpt><trkpt lat="51.9591611065" lon="-2.2125641908"><ele>18.88</ele><time>2014-06-25T09:32:25Z</time></trkpt><trkpt lat="51.9591122400" lon="-2.2125993110"><ele>19.36</ele><time>2014-06-25T09:32:38Z</time></trkpt><trkpt lat="51.9590889383" lon="-2.2126027476"><ele>19.36</ele><time>2014-06-25T09:32:41Z</time></trkpt><trkpt lat="51.9589630421" lon="-2.2126658633"><ele>19.36</ele><time>2014-06-25T09:32:55Z</time></trkpt><trkpt lat="51.9589292631" lon="-2.2126876563"><ele>19.36</ele><time>2014-06-25T09:33:00Z</time></trkpt><trkpt lat="51.9588259980" lon="-2.2127279732"><ele>19.36</ele><time>2014-06-25T09:33:11Z</time></trkpt><trkpt lat="51.9588187058" lon="-2.2127318289"><ele>19.36</ele><time>2014-06-25T09:33:12Z</time></trkpt><trkpt lat="51.9587131776" lon="-2.2127960343"><ele>19.36</ele><time>2014-06-25T09:33:24Z</time></trkpt><trkpt lat="51.9586776383" lon="-2.2128075175"><ele>19.36</ele><time>2014-06-25T09:33:28Z</time></trkpt><trkpt lat="51.9586521573" lon="-2.2128283884"><ele>19.36</ele><time>2014-06-25T09:33:31Z</time></trkpt><trkpt lat="51.9585561007" lon="-2.2128665261"><ele>19.36</ele><time>2014-06-25T09:33:44Z</time></trkpt><trkpt lat="51.9585200585" lon="-2.2128894925"><ele>19.36</ele><time>2014-06-25T09:34:05Z</time></trkpt><trkpt lat="51.9584286958" lon="-2.2129499260"><ele>19.84</ele><time>2014-06-25T09:34:17Z</time></trkpt><trkpt lat="51.9583384227" lon="-2.2129919194"><ele>18.88</ele><time>2014-06-25T09:34:29Z</time></trkpt><trkpt lat="51.9582442101" lon="-2.2130242735"><ele>19.36</ele><time>2014-06-25T09:34:42Z</time></trkpt><trkpt lat="51.9581777416" lon="-2.2130550351"><ele>19.36</ele><time>2014-06-25T09:34:49Z</time></trkpt><trkpt lat="51.9580706209" lon="-2.2131188214"><ele>19.36</ele><time>2014-06-25T09:35:02Z</time></trkpt><trkpt lat="51.9579783361" lon="-2.2131104395"><ele>19.36</ele><time>2014-06-25T09:35:13Z</time></trkpt><trkpt lat="51.9579048268" lon="-2.2131425422"><ele>19.84</ele><time>2014-06-25T09:35:25Z</time></trkpt><trkpt lat="51.9579012226" lon="-2.2131403629"><ele>19.84</ele><time>2014-06-25T09:35:44Z</time></trkpt><trkpt lat="51.9578940142" lon="-2.2131467331"><ele>18.88</ele><time>2014-06-25T09:35:55Z</time></trkpt><trkpt lat="51.9578208402" lon="-2.2132049873"><ele>19.84</ele><time>2014-06-25T09:36:11Z</time></trkpt><trkpt lat="51.9577264600" lon="-2.2132395208"><ele>19.84</ele><time>2014-06-25T09:36:23Z</time></trkpt><trkpt lat="51.9576269668" lon="-2.2133129463"><ele>19.36</ele><time>2014-06-25T09:36:33Z</time></trkpt><trkpt lat="51.9575362746" lon="-2.2133370861"><ele>19.36</ele><time>2014-06-25T09:36:42Z</time></trkpt><trkpt lat="51.9575128052" lon="-2.2133545205"><ele>19.84</ele><time>2014-06-25T09:36:44Z</time></trkpt><trkpt lat="51.9574325066" lon="-2.2133717872"><ele>19.84</ele><time>2014-06-25T09:36:52Z</time></trkpt><trkpt lat="51.9573429041" lon="-2.2133059893"><ele>19.36</ele><time>2014-06-25T09:37:06Z</time></trkpt><trkpt lat="51.9573431555" lon="-2.2132778261"><ele>18.88</ele><time>2014-06-25T09:37:18Z</time></trkpt><trkpt lat="51.9573224522" lon="-2.2132126987"><ele>18.40</ele><time>2014-06-25T09:37:34Z</time></trkpt><trkpt lat="51.9573072810" lon="-2.2131125350"><ele>19.36</ele><time>2014-06-25T09:37:49Z</time></trkpt><trkpt lat="51.9572718255" lon="-2.2130652610"><ele>19.36</ele><time>2014-06-25T09:38:02Z</time></trkpt><trkpt lat="51.9572606776" lon="-2.2130629979"><ele>19.36</ele><time>2014-06-25T09:38:21Z</time></trkpt><trkpt lat="51.9572457578" lon="-2.2130682785"><ele>19.84</ele><time>2014-06-25T09:38:31Z</time></trkpt><trkpt lat="51.9572440814" lon="-2.2130688652"><ele>19.36</ele><time>2014-06-25T09:38:49Z</time></trkpt><trkpt lat="51.9572393876" lon="-2.2130703740"><ele>19.36</ele><time>2014-06-25T09:39:05Z</time></trkpt><trkpt lat="51.9572403934" lon="-2.2130614892"><ele>19.36</ele><time>2014-06-25T09:39:27Z</time></trkpt><trkpt lat="51.9572410639" lon="-2.2130583879"><ele>19.36</ele><time>2014-06-25T09:39:53Z</time></trkpt><trkpt lat="51.9572412316" lon="-2.2130574659"><ele>19.36</ele><time>2014-06-25T09:40:23Z</time></trkpt><trkpt lat="51.9572360348" lon="-2.2130660992"><ele>18.88</ele><time>2014-06-25T09:40:43Z</time></trkpt><trkpt lat="51.9572349451" lon="-2.2130677756"><ele>18.40</ele><time>2014-06-25T09:40:44Z</time></trkpt><trkpt lat="51.9572409801" lon="-2.2131143790"><ele>19.36</ele><time>2014-06-25T09:40:56Z</time></trkpt><trkpt lat="51.9572378788" lon="-2.2131762374"><ele>19.36</ele><time>2014-06-25T09:41:13Z</time></trkpt><trkpt lat="51.9572322629" lon="-2.2132822685"><ele>19.84</ele><time>2014-06-25T09:41:25Z</time></trkpt><trkpt lat="51.9572263956" lon="-2.2134152893"><ele>19.84</ele><time>2014-06-25T09:41:37Z</time></trkpt><trkpt lat="51.9572107214" lon="-2.2136249207"><ele>18.88</ele><time>2014-06-25T09:41:50Z</time></trkpt><trkpt lat="51.9571732543" lon="-2.2138372343"><ele>18.88</ele><time>2014-06-25T09:42:03Z</time></trkpt><trkpt lat="51.9571377151" lon="-2.2140162718"><ele>18.40</ele><time>2014-06-25T09:42:17Z</time></trkpt><trkpt lat="51.9571079593" lon="-2.2141102329"><ele>17.92</ele><time>2014-06-25T09:42:25Z</time></trkpt><trkpt lat="51.9570995774" lon="-2.2141357977"><ele>18.40</ele><time>2014-06-25T09:42:27Z</time></trkpt><trkpt lat="51.9570429157" lon="-2.2143292520"><ele>17.92</ele><time>2014-06-25T09:42:40Z</time></trkpt><trkpt lat="51.9569875952" lon="-2.2144951299"><ele>17.92</ele><time>2014-06-25T09:42:52Z</time></trkpt><trkpt lat="51.9569493737" lon="-2.2146947030"><ele>17.44</ele><time>2014-06-25T09:43:05Z</time></trkpt><trkpt lat="51.9569395669" lon="-2.2147237882"><ele>17.44</ele><time>2014-06-25T09:43:07Z</time></trkpt><trkpt lat="51.9568809774" lon="-2.2149387002"><ele>17.44</ele><time>2014-06-25T09:43:21Z</time></trkpt><trkpt lat="51.9568606932" lon="-2.2150137182"><ele>17.92</ele><time>2014-06-25T09:43:27Z</time></trkpt><trkpt lat="51.9568493776" lon="-2.2150553763"><ele>17.92</ele><time>2014-06-25T09:43:30Z</time></trkpt><trkpt lat="51.9568423368" lon="-2.2151084337"><ele>17.44</ele><time>2014-06-25T09:43:33Z</time></trkpt><trkpt lat="51.9568315241" lon="-2.2151393630"><ele>16.96</ele><time>2014-06-25T09:43:35Z</time></trkpt><trkpt lat="51.9568139222" lon="-2.2152509261"><ele>16.96</ele><time>2014-06-25T09:43:43Z</time></trkpt><trkpt lat="51.9568039477" lon="-2.2152903210"><ele>17.44</ele><time>2014-06-25T09:43:46Z</time></trkpt><trkpt lat="51.9567570928" lon="-2.2155297082"><ele>16.96</ele><time>2014-06-25T09:44:02Z</time></trkpt><trkpt lat="51.9567312766" lon="-2.2156292852"><ele>16.48</ele><time>2014-06-25T09:44:09Z</time></trkpt><trkpt lat="51.9566864334" lon="-2.2158486396"><ele>16.96</ele><time>2014-06-25T09:44:24Z</time></trkpt><trkpt lat="51.9566810690" lon="-2.2158774734"><ele>16.96</ele><time>2014-06-25T09:44:26Z</time></trkpt><trkpt lat="51.9566690829" lon="-2.2159050498"><ele>16.48</ele><time>2014-06-25T09:44:29Z</time></trkpt><trkpt lat="51.9566262513" lon="-2.2160656471"><ele>16.96</ele><time>2014-06-25T09:44:40Z</time></trkpt><trkpt lat="51.9565940648" lon="-2.2162656393"><ele>16.48</ele><time>2014-06-25T09:44:53Z</time></trkpt><trkpt lat="51.9565578550" lon="-2.2164502088"><ele>16.48</ele><time>2014-06-25T09:45:05Z</time></trkpt><trkpt lat="51.9565256685" lon="-2.2166115604"><ele>16.96</ele><time>2014-06-25T09:45:18Z</time></trkpt><trkpt lat="51.9564854354" lon="-2.2168098763"><ele>16.96</ele><time>2014-06-25T09:45:31Z</time></trkpt><trkpt lat="51.9564549252" lon="-2.2169213556"><ele>16.48</ele><time>2014-06-25T09:45:39Z</time></trkpt><trkpt lat="51.9564089086" lon="-2.2171152290"><ele>16.96</ele><time>2014-06-25T09:45:52Z</time></trkpt><trkpt lat="51.9563618861" lon="-2.2172879800"><ele>16.96</ele><time>2014-06-25T09:46:05Z</time></trkpt><trkpt lat="51.9563292805" lon="-2.2174386866"><ele>16.48</ele><time>2014-06-25T09:46:15Z</time></trkpt><trkpt lat="51.9563113432" lon="-2.2175007965"><ele>16.48</ele><time>2014-06-25T09:46:27Z</time></trkpt><trkpt lat="51.9563194737" lon="-2.2174894810"><ele>16.48</ele><time>2014-06-25T09:46:39Z</time></trkpt><trkpt lat="51.9563159533" lon="-2.2174857091"><ele>16.48</ele><time>2014-06-25T09:46:57Z</time></trkpt><trkpt lat="51.9563182164" lon="-2.2174779139"><ele>16.48</ele><time>2014-06-25T09:47:30Z</time></trkpt><trkpt lat="51.9563272689" lon="-2.2175080888"><ele>16.96</ele><time>2014-06-25T09:47:45Z</time></trkpt><trkpt lat="51.9563225750" lon="-2.2175311390"><ele>16.48</ele><time>2014-06-25T09:47:59Z</time></trkpt><trkpt lat="51.9563082419" lon="-2.2175872140"><ele>16.48</ele><time>2014-06-25T09:48:06Z</time></trkpt><trkpt lat="51.9562971778" lon="-2.2176169697"><ele>16.96</ele><time>2014-06-25T09:48:08Z</time></trkpt><trkpt lat="51.9562851917" lon="-2.2176670935"><ele>16.48</ele><time>2014-06-25T09:48:11Z</time></trkpt><trkpt lat="51.9562547654" lon="-2.2177034710"><ele>16.96</ele><time>2014-06-25T09:48:14Z</time></trkpt><trkpt lat="51.9561876263" lon="-2.2177818418"><ele>16.96</ele><time>2014-06-25T09:48:21Z</time></trkpt><trkpt lat="51.9561318867" lon="-2.2178381681"><ele>16.48</ele><time>2014-06-25T09:48:27Z</time></trkpt><trkpt lat="51.9560965151" lon="-2.2178530041"><ele>16.96</ele><time>2014-06-25T09:48:30Z</time></trkpt><trkpt lat="51.9560771529" lon="-2.2178918123"><ele>16.96</ele><time>2014-06-25T09:48:33Z</time></trkpt><trkpt lat="51.9560446311" lon="-2.2179174609"><ele>16.96</ele><time>2014-06-25T09:48:36Z</time></trkpt><trkpt lat="51.9559672661" lon="-2.2180067282"><ele>16.96</ele><time>2014-06-25T09:48:45Z</time></trkpt><trkpt lat="51.9558496680" lon="-2.2181555070"><ele>16.96</ele><time>2014-06-25T09:48:59Z</time></trkpt><trkpt lat="51.9558218401" lon="-2.2181811556"><ele>16.96</ele><time>2014-06-25T09:49:01Z</time></trkpt><trkpt lat="51.9556927588" lon="-2.2183426749"><ele>16.96</ele><time>2014-06-25T09:49:14Z</time></trkpt><trkpt lat="51.9556549564" lon="-2.2184000909"><ele>16.96</ele><time>2014-06-25T09:49:24Z</time></trkpt><trkpt lat="51.9555766694" lon="-2.2185279988"><ele>16.96</ele><time>2014-06-25T09:49:33Z</time></trkpt><trkpt lat="51.9555081893" lon="-2.2185917851"><ele>16.48</ele><time>2014-06-25T09:49:39Z</time></trkpt><trkpt lat="51.9553621765" lon="-2.2187501192"><ele>16.96</ele><time>2014-06-25T09:49:54Z</time></trkpt><trkpt lat="51.9553412218" lon="-2.2187687270"><ele>16.96</ele><time>2014-06-25T09:49:56Z</time></trkpt><trkpt lat="51.9552875776" lon="-2.2188372910"><ele>16.48</ele><time>2014-06-25T09:50:02Z</time></trkpt><trkpt lat="51.9552234560" lon="-2.2189423162"><ele>16.96</ele><time>2014-06-25T09:50:10Z</time></trkpt><trkpt lat="51.9549986534" lon="-2.2193065099"><ele>16.48</ele><time>2014-06-25T09:50:27Z</time></trkpt><trkpt lat="51.9548844080" lon="-2.2195587214"><ele>16.96</ele><time>2014-06-25T09:50:45Z</time></trkpt><trkpt lat="51.9548643753" lon="-2.2196817677"><ele>16.96</ele><time>2014-06-25T09:51:04Z</time></trkpt><trkpt lat="51.9548051991" lon="-2.2200227436"><ele>17.44</ele><time>2014-06-25T09:51:24Z</time></trkpt><trkpt lat="51.9547399040" lon="-2.2203280125"><ele>17.44</ele><time>2014-06-25T09:51:44Z</time></trkpt><trkpt lat="51.9547190331" lon="-2.2204471193"><ele>16.96</ele><time>2014-06-25T09:52:02Z</time></trkpt><trkpt lat="51.9546684064" lon="-2.2206256539"><ele>16.96</ele><time>2014-06-25T09:52:25Z</time></trkpt><trkpt lat="51.9545907900" lon="-2.2209827229"><ele>16.96</ele><time>2014-06-25T09:52:42Z</time></trkpt><trkpt lat="51.9545239862" lon="-2.2211895045"><ele>16.96</ele><time>2014-06-25T09:53:00Z</time></trkpt><trkpt lat="51.9545042049" lon="-2.2212398797"><ele>16.96</ele><time>2014-06-25T09:53:15Z</time></trkpt><trkpt lat="51.9543359801" lon="-2.2215104476"><ele>16.96</ele><time>2014-06-25T09:53:36Z</time></trkpt><trkpt lat="51.9542918075" lon="-2.2215702105"><ele>16.96</ele><time>2014-06-25T09:53:44Z</time></trkpt><trkpt lat="51.9540920667" lon="-2.2218186501"><ele>17.44</ele><time>2014-06-25T09:54:08Z</time></trkpt><trkpt lat="51.9539417792" lon="-2.2219945025"><ele>16.96</ele><time>2014-06-25T09:54:25Z</time></trkpt><trkpt lat="51.9538648333" lon="-2.2222678363"><ele>16.96</ele><time>2014-06-25T09:54:45Z</time></trkpt><trkpt lat="51.9538415316" lon="-2.2223939840"><ele>17.44</ele><time>2014-06-25T09:54:56Z</time></trkpt><trkpt lat="51.9538418669" lon="-2.2224418446"><ele>17.44</ele><time>2014-06-25T09:54:58Z</time></trkpt><trkpt lat="51.9538437948" lon="-2.2224856820"><ele>17.44</ele><time>2014-06-25T09:55:11Z</time></trkpt><trkpt lat="51.9538416155" lon="-2.2224875260"><ele>16.96</ele><time>2014-06-25T09:55:12Z</time></trkpt><trkpt lat="51.9538344909" lon="-2.2224700078"><ele>16.96</ele><time>2014-06-25T09:55:25Z</time></trkpt><trkpt lat="51.9538328983" lon="-2.2224731091"><ele>16.96</ele><time>2014-06-25T09:55:57Z</time></trkpt><trkpt lat="51.9538421184" lon="-2.2224822454"><ele>16.96</ele><time>2014-06-25T09:56:06Z</time></trkpt><trkpt lat="51.9538434595" lon="-2.2224816587"><ele>16.48</ele><time>2014-06-25T09:56:09Z</time></trkpt><trkpt lat="51.9538877159" lon="-2.2224824969"><ele>16.96</ele><time>2014-06-25T09:56:13Z</time></trkpt><trkpt lat="51.9539783243" lon="-2.2223526612"><ele>17.44</ele><time>2014-06-25T09:56:27Z</time></trkpt><trkpt lat="51.9540817570" lon="-2.2221860290"><ele>17.44</ele><time>2014-06-25T09:56:42Z</time></trkpt><trkpt lat="51.9541772269" lon="-2.2220587917"><ele>17.92</ele><time>2014-06-25T09:56:54Z</time></trkpt><trkpt lat="51.9543058891" lon="-2.2219191492"><ele>17.44</ele><time>2014-06-25T09:57:09Z</time></trkpt><trkpt lat="51.9543708488" lon="-2.2218737192"><ele>16.96</ele><time>2014-06-25T09:57:16Z</time></trkpt><trkpt lat="51.9545200467" lon="-2.2217443027"><ele>16.96</ele><time>2014-06-25T09:57:31Z</time></trkpt><trkpt lat="51.9545426778" lon="-2.2217218392"><ele>16.48</ele><time>2014-06-25T09:57:33Z</time></trkpt><trkpt lat="51.9546663109" lon="-2.2215876449"><ele>16.48</ele><time>2014-06-25T09:57:46Z</time></trkpt><trkpt lat="51.9547653012" lon="-2.2214269638"><ele>16.48</ele><time>2014-06-25T09:57:59Z</time></trkpt><trkpt lat="51.9547699951" lon="-2.2214123793"><ele>16.48</ele><time>2014-06-25T09:58:00Z</time></trkpt><trkpt lat="51.9548733439" lon="-2.2212235350"><ele>17.44</ele><time>2014-06-25T09:58:15Z</time></trkpt><trkpt lat="51.9549998268" lon="-2.2210490238"><ele>17.44</ele><time>2014-06-25T09:58:31Z</time></trkpt><trkpt lat="51.9551085401" lon="-2.2209039330"><ele>17.44</ele><time>2014-06-25T09:58:46Z</time></trkpt><trkpt lat="51.9551574904" lon="-2.2208165098"><ele>18.40</ele><time>2014-06-25T09:58:53Z</time></trkpt><trkpt lat="51.9553073589" lon="-2.2207213752"><ele>17.92</ele><time>2014-06-25T09:59:10Z</time></trkpt><trkpt lat="51.9553512800" lon="-2.2207152564"><ele>17.92</ele><time>2014-06-25T09:59:26Z</time></trkpt><trkpt lat="51.9553752523" lon="-2.2207006719"><ele>17.92</ele><time>2014-06-25T09:59:41Z</time></trkpt><trkpt lat="51.9553760905" lon="-2.2206886858"><ele>17.92</ele><time>2014-06-25T09:59:55Z</time></trkpt><trkpt lat="51.9553785212" lon="-2.2206772864"><ele>17.44</ele><time>2014-06-25T10:00:24Z</time></trkpt><trkpt lat="51.9553768449" lon="-2.2206668928"><ele>17.44</ele><time>2014-06-25T10:00:37Z</time></trkpt><trkpt lat="51.9553756714" lon="-2.2206687368"><ele>17.92</ele><time>2014-06-25T10:01:01Z</time></trkpt><trkpt lat="51.9553724024" lon="-2.2206710838"><ele>17.44</ele><time>2014-06-25T10:01:12Z</time></trkpt><trkpt lat="51.9553700555" lon="-2.2206731793"><ele>17.44</ele><time>2014-06-25T10:01:38Z</time></trkpt><trkpt lat="51.9553688820" lon="-2.2206708323"><ele>17.44</ele><time>2014-06-25T10:02:02Z</time></trkpt><trkpt lat="51.9553681277" lon="-2.2206709161"><ele>17.44</ele><time>2014-06-25T10:02:27Z</time></trkpt><trkpt lat="51.9553696364" lon="-2.2206742689"><ele>17.44</ele><time>2014-06-25T10:02:52Z</time></trkpt><trkpt lat="51.9553714804" lon="-2.2206769511"><ele>17.44</ele><time>2014-06-25T10:03:26Z</time></trkpt><trkpt lat="51.9553734921" lon="-2.2206819803"><ele>16.96</ele><time>2014-06-25T10:03:58Z</time></trkpt><trkpt lat="51.9553734083" lon="-2.2206818964"><ele>16.96</ele><time>2014-06-25T10:04:32Z</time></trkpt><trkpt lat="51.9553724863" lon="-2.2206804715"><ele>16.96</ele><time>2014-06-25T10:05:03Z</time></trkpt><trkpt lat="51.9553682953" lon="-2.2206784599"><ele>17.44</ele><time>2014-06-25T10:05:32Z</time></trkpt><trkpt lat="51.9553657807" lon="-2.2206768673"><ele>17.44</ele><time>2014-06-25T10:05:56Z</time></trkpt><trkpt lat="51.9553573988" lon="-2.2206627857"><ele>17.44</ele><time>2014-06-25T10:06:18Z</time></trkpt><trkpt lat="51.9553571474" lon="-2.2206530627"><ele>16.96</ele><time>2014-06-25T10:06:55Z</time></trkpt><trkpt lat="51.9553591590" lon="-2.2206616960"><ele>17.44</ele><time>2014-06-25T10:07:20Z</time></trkpt><trkpt lat="51.9553590752" lon="-2.2206647974"><ele>16.96</ele><time>2014-06-25T10:07:48Z</time></trkpt><trkpt lat="51.9553600810" lon="-2.2206612770"><ele>16.48</ele><time>2014-06-25T10:08:09Z</time></trkpt><trkpt lat="51.9553610031" lon="-2.2206612770"><ele>17.44</ele><time>2014-06-25T10:08:20Z</time></trkpt><trkpt lat="51.9553645235" lon="-2.2206849139"><ele>16.96</ele><time>2014-06-25T10:08:41Z</time></trkpt><trkpt lat="51.9553643558" lon="-2.2206861712"><ele>16.96</ele><time>2014-06-25T10:08:54Z</time></trkpt><trkpt lat="51.9553651940" lon="-2.2206771187"><ele>17.44</ele><time>2014-06-25T10:09:11Z</time></trkpt><trkpt lat="51.9553647749" lon="-2.2206797171"><ele>16.96</ele><time>2014-06-25T10:09:36Z</time></trkpt><trkpt lat="51.9553632662" lon="-2.2206801362"><ele>16.96</ele><time>2014-06-25T10:10:07Z</time></trkpt><trkpt lat="51.9553611707" lon="-2.2206791304"><ele>17.44</ele><time>2014-06-25T10:10:32Z</time></trkpt><trkpt lat="51.9553588238" lon="-2.2206785437"><ele>17.44</ele><time>2014-06-25T10:11:01Z</time></trkpt><trkpt lat="51.9553600810" lon="-2.2206638753"><ele>17.44</ele><time>2014-06-25T10:11:17Z</time></trkpt><trkpt lat="51.9553590752" lon="-2.2206637915"><ele>17.44</ele><time>2014-06-25T10:11:48Z</time></trkpt><trkpt lat="51.9553549681" lon="-2.2206627857"><ele>17.92</ele><time>2014-06-25T10:12:06Z</time></trkpt><trkpt lat="51.9553791918" lon="-2.2207488678"><ele>16.96</ele><time>2014-06-25T10:12:18Z</time></trkpt><trkpt lat="51.9553874061" lon="-2.2207935434"><ele>16.96</ele><time>2014-06-25T10:12:21Z</time></trkpt><trkpt lat="51.9554165751" lon="-2.2208632808"><ele>16.96</ele><time>2014-06-25T10:12:25Z</time></trkpt><trkpt lat="51.9554239511" lon="-2.2209126502"><ele>16.48</ele><time>2014-06-25T10:12:28Z</time></trkpt><trkpt lat="51.9554538745" lon="-2.2209833935"><ele>16.96</ele><time>2014-06-25T10:12:32Z</time></trkpt><trkpt lat="51.9554987177" lon="-2.2211623471"><ele>16.96</ele><time>2014-06-25T10:12:42Z</time></trkpt><trkpt lat="51.9555607438" lon="-2.2213615011"><ele>16.48</ele><time>2014-06-25T10:12:57Z</time></trkpt><trkpt lat="51.9555946067" lon="-2.2214910854"><ele>16.00</ele><time>2014-06-25T10:13:07Z</time></trkpt><trkpt lat="51.9556446467" lon="-2.2216525208"><ele>15.52</ele><time>2014-06-25T10:13:20Z</time></trkpt><trkpt lat="51.9556870591" lon="-2.2218374256"><ele>16.00</ele><time>2014-06-25T10:13:34Z</time></trkpt><trkpt lat="51.9557302259" lon="-2.2220193129"><ele>15.52</ele><time>2014-06-25T10:13:46Z</time></trkpt><trkpt lat="51.9557413738" lon="-2.2220350709"><ele>15.52</ele><time>2014-06-25T10:13:48Z</time></trkpt><trkpt lat="51.9557914138" lon="-2.2222082410"><ele>16.00</ele><time>2014-06-25T10:14:01Z</time></trkpt><trkpt lat="51.9558642525" lon="-2.2224176209"><ele>15.52</ele><time>2014-06-25T10:14:17Z</time></trkpt><trkpt lat="51.9559248537" lon="-2.2225950658"><ele>15.52</ele><time>2014-06-25T10:14:30Z</time></trkpt><trkpt lat="51.9559874665" lon="-2.2228106484"><ele>15.52</ele><time>2014-06-25T10:14:45Z</time></trkpt><trkpt lat="51.9560369197" lon="-2.2229945473"><ele>15.52</ele><time>2014-06-25T10:14:58Z</time></trkpt><trkpt lat="51.9560483191" lon="-2.2230466828"><ele>15.04</ele><time>2014-06-25T10:15:01Z</time></trkpt><trkpt lat="51.9560769014" lon="-2.2231540550"><ele>15.04</ele><time>2014-06-25T10:15:09Z</time></trkpt><trkpt lat="51.9561423641" lon="-2.2233522870"><ele>15.52</ele><time>2014-06-25T10:15:23Z</time></trkpt><trkpt lat="51.9561585411" lon="-2.2234024107"><ele>15.04</ele><time>2014-06-25T10:15:27Z</time></trkpt><trkpt lat="51.9561982714" lon="-2.2235657740"><ele>15.52</ele><time>2014-06-25T10:15:38Z</time></trkpt><trkpt lat="51.9562012888" lon="-2.2236184962"><ele>15.04</ele><time>2014-06-25T10:15:41Z</time></trkpt><trkpt lat="51.9562323857" lon="-2.2238265350"><ele>15.04</ele><time>2014-06-25T10:15:53Z</time></trkpt><trkpt lat="51.9562667515" lon="-2.2240520082"><ele>14.56</ele><time>2014-06-25T10:16:07Z</time></trkpt><trkpt lat="51.9563061465" lon="-2.2242012899"><ele>14.56</ele><time>2014-06-25T10:16:17Z</time></trkpt><trkpt lat="51.9563187193" lon="-2.2243727837"><ele>14.56</ele><time>2014-06-25T10:16:29Z</time></trkpt><trkpt lat="51.9562869519" lon="-2.2245685849"><ele>14.56</ele><time>2014-06-25T10:16:43Z</time></trkpt><trkpt lat="51.9562849402" lon="-2.2245816607"><ele>15.04</ele><time>2014-06-25T10:16:44Z</time></trkpt><trkpt lat="51.9562569447" lon="-2.2246534098"><ele>15.04</ele><time>2014-06-25T10:16:49Z</time></trkpt><trkpt lat="51.9562444557" lon="-2.2247632965"><ele>14.08</ele><time>2014-06-25T10:17:08Z</time></trkpt><trkpt lat="51.9562488981" lon="-2.2247575969"><ele>14.56</ele><time>2014-06-25T10:17:22Z</time></trkpt><trkpt lat="51.9562525023" lon="-2.2247657273"><ele>14.56</ele><time>2014-06-25T10:17:43Z</time></trkpt><trkpt lat="51.9562566932" lon="-2.2247775458"><ele>15.04</ele><time>2014-06-25T10:17:51Z</time></trkpt><trkpt lat="51.9562726188" lon="-2.2247825749"><ele>15.04</ele><time>2014-06-25T10:17:56Z</time></trkpt><trkpt lat="51.9562688470" lon="-2.2249600198"><ele>15.04</ele><time>2014-06-25T10:18:07Z</time></trkpt><trkpt lat="51.9562838506" lon="-2.2252009995"><ele>15.04</ele><time>2014-06-25T10:18:23Z</time></trkpt><trkpt lat="51.9562896341" lon="-2.2252864949"><ele>15.04</ele><time>2014-06-25T10:18:29Z</time></trkpt><trkpt lat="51.9563165400" lon="-2.2254943661"><ele>15.04</ele><time>2014-06-25T10:18:43Z</time></trkpt><trkpt lat="51.9563478045" lon="-2.2256533708"><ele>14.56</ele><time>2014-06-25T10:18:54Z</time></trkpt><trkpt lat="51.9563748781" lon="-2.2257170733"><ele>14.56</ele><time>2014-06-25T10:19:00Z</time></trkpt><trkpt lat="51.9564224035" lon="-2.2259032354"><ele>15.04</ele><time>2014-06-25T10:19:14Z</time></trkpt><trkpt lat="51.9564740360" lon="-2.2260827757"><ele>15.04</ele><time>2014-06-25T10:19:29Z</time></trkpt><trkpt lat="51.9565184601" lon="-2.2262700275"><ele>15.04</ele><time>2014-06-25T10:19:44Z</time></trkpt><trkpt lat="51.9565687515" lon="-2.2264369950"><ele>15.04</ele><time>2014-06-25T10:19:59Z</time></trkpt><trkpt lat="51.9566073921" lon="-2.2266108356"><ele>15.52</ele><time>2014-06-25T10:20:14Z</time></trkpt><trkpt lat="51.9566405844" lon="-2.2267582733"><ele>15.04</ele><time>2014-06-25T10:20:26Z</time></trkpt><trkpt lat="51.9566902053" lon="-2.2269431781"><ele>15.04</ele><time>2014-06-25T10:20:39Z</time></trkpt><trkpt lat="51.9567177817" lon="-2.2270302661"><ele>15.52</ele><time>2014-06-25T10:20:46Z</time></trkpt><trkpt lat="51.9567782991" lon="-2.2271977365"><ele>14.56</ele><time>2014-06-25T10:21:00Z</time></trkpt><trkpt lat="51.9568110723" lon="-2.2273362894"><ele>14.56</ele><time>2014-06-25T10:21:13Z</time></trkpt><trkpt lat="51.9568823185" lon="-2.2275099624"><ele>14.56</ele><time>2014-06-25T10:21:27Z</time></trkpt><trkpt lat="51.9569502119" lon="-2.2276180889"><ele>15.04</ele><time>2014-06-25T10:21:41Z</time></trkpt><trkpt lat="51.9570036884" lon="-2.2277423088"><ele>14.56</ele><time>2014-06-25T10:21:55Z</time></trkpt><trkpt lat="51.9570314325" lon="-2.2278503515"><ele>14.56</ele><time>2014-06-25T10:22:11Z</time></trkpt><trkpt lat="51.9570400659" lon="-2.2278961167"><ele>14.56</ele><time>2014-06-25T10:22:26Z</time></trkpt><trkpt lat="51.9570883457" lon="-2.2280813567"><ele>14.56</ele><time>2014-06-25T10:22:39Z</time></trkpt><trkpt lat="51.9571435824" lon="-2.2282703687"><ele>14.56</ele><time>2014-06-25T10:22:52Z</time></trkpt><trkpt lat="51.9571712427" lon="-2.2283946723"><ele>14.56</ele><time>2014-06-25T10:23:00Z</time></trkpt><trkpt lat="51.9572066981" lon="-2.2285256814"><ele>14.56</ele><time>2014-06-25T10:23:09Z</time></trkpt><trkpt lat="51.9572409801" lon="-2.2286685929"><ele>15.04</ele><time>2014-06-25T10:23:22Z</time></trkpt><trkpt lat="51.9573124778" lon="-2.2289008554"><ele>14.56</ele><time>2014-06-25T10:23:39Z</time></trkpt><trkpt lat="51.9573589973" lon="-2.2290480416"><ele>15.04</ele><time>2014-06-25T10:23:52Z</time></trkpt><trkpt lat="51.9573716540" lon="-2.2291586827"><ele>15.52</ele><time>2014-06-25T10:24:06Z</time></trkpt><trkpt lat="51.9573097955" lon="-2.2292146739"><ele>15.52</ele><time>2014-06-25T10:24:17Z</time></trkpt><trkpt lat="51.9573314209" lon="-2.2292518895"><ele>15.52</ele><time>2014-06-25T10:24:35Z</time></trkpt><trkpt lat="51.9573325105" lon="-2.2292572539"><ele>15.52</ele><time>2014-06-25T10:24:52Z</time></trkpt><trkpt lat="51.9573973864" lon="-2.2292167693"><ele>16.00</ele><time>2014-06-25T10:25:05Z</time></trkpt><trkpt lat="51.9574166648" lon="-2.2292103991"><ele>16.00</ele><time>2014-06-25T10:25:07Z</time></trkpt><trkpt lat="51.9575057644" lon="-2.2291187011"><ele>16.48</ele><time>2014-06-25T10:25:22Z</time></trkpt><trkpt lat="51.9575718977" lon="-2.2291096486"><ele>16.00</ele><time>2014-06-25T10:25:37Z</time></trkpt><trkpt lat="51.9576806948" lon="-2.2290995065"><ele>16.48</ele><time>2014-06-25T10:25:49Z</time></trkpt><trkpt lat="51.9577487558" lon="-2.2290519811"><ele>16.00</ele><time>2014-06-25T10:26:02Z</time></trkpt><trkpt lat="51.9577930961" lon="-2.2290125024"><ele>16.00</ele><time>2014-06-25T10:26:18Z</time></trkpt><trkpt lat="51.9578026515" lon="-2.2290093172"><ele>15.52</ele><time>2014-06-25T10:26:27Z</time></trkpt><trkpt lat="51.9578455668" lon="-2.2289636359"><ele>16.00</ele><time>2014-06-25T10:26:35Z</time></trkpt><trkpt lat="51.9579435512" lon="-2.2288667411"><ele>16.00</ele><time>2014-06-25T10:26:50Z</time></trkpt><trkpt lat="51.9580789190" lon="-2.2287969198"><ele>16.48</ele><time>2014-06-25T10:27:07Z</time></trkpt><trkpt lat="51.9581022207" lon="-2.2287885379"><ele>16.48</ele><time>2014-06-25T10:27:23Z</time></trkpt><trkpt lat="51.9581515901" lon="-2.2288129292"><ele>16.48</ele><time>2014-06-25T10:27:38Z</time></trkpt><trkpt lat="51.9582898915" lon="-2.2288619634"><ele>16.00</ele><time>2014-06-25T10:27:52Z</time></trkpt><trkpt lat="51.9583577849" lon="-2.2288730275"><ele>16.48</ele><time>2014-06-25T10:28:01Z</time></trkpt><trkpt lat="51.9584794063" lon="-2.2288876120"><ele>16.96</ele><time>2014-06-25T10:28:14Z</time></trkpt><trkpt lat="51.9585871976" lon="-2.2289170325"><ele>16.96</ele><time>2014-06-25T10:28:26Z</time></trkpt><trkpt lat="51.9586897921" lon="-2.2289111651"><ele>16.96</ele><time>2014-06-25T10:28:37Z</time></trkpt><trkpt lat="51.9588252436" lon="-2.2289140150"><ele>17.44</ele><time>2014-06-25T10:28:51Z</time></trkpt><trkpt lat="51.9588508923" lon="-2.2289043758"><ele>17.44</ele><time>2014-06-25T10:28:54Z</time></trkpt><trkpt lat="51.9588824920" lon="-2.2289016098"><ele>17.44</ele><time>2014-06-25T10:28:57Z</time></trkpt><trkpt lat="51.9589205459" lon="-2.2289014421"><ele>17.44</ele><time>2014-06-25T10:29:01Z</time></trkpt><trkpt lat="51.9590052869" lon="-2.2288780566"><ele>17.44</ele><time>2014-06-25T10:29:13Z</time></trkpt><trkpt lat="51.9590798020" lon="-2.2288754582"><ele>17.44</ele><time>2014-06-25T10:29:22Z</time></trkpt><trkpt lat="51.9591801334" lon="-2.2288819961"><ele>17.44</ele><time>2014-06-25T10:29:33Z</time></trkpt><trkpt lat="51.9592184387" lon="-2.2288309503"><ele>17.44</ele><time>2014-06-25T10:29:43Z</time></trkpt><trkpt lat="51.9592355378" lon="-2.2288190480"><ele>17.92</ele><time>2014-06-25T10:29:58Z</time></trkpt><trkpt lat="51.9593068678" lon="-2.2288317047"><ele>18.40</ele><time>2014-06-25T10:30:07Z</time></trkpt><trkpt lat="51.9593973085" lon="-2.2288203053"><ele>18.40</ele><time>2014-06-25T10:30:17Z</time></trkpt><trkpt lat="51.9595406391" lon="-2.2288072295"><ele>17.92</ele><time>2014-06-25T10:30:31Z</time></trkpt><trkpt lat="51.9596138969" lon="-2.2288075648"><ele>17.44</ele><time>2014-06-25T10:30:38Z</time></trkpt><trkpt lat="51.9596999791" lon="-2.2287879512"><ele>17.92</ele><time>2014-06-25T10:30:46Z</time></trkpt><trkpt lat="51.9598102011" lon="-2.2287629731"><ele>17.92</ele><time>2014-06-25T10:31:01Z</time></trkpt><trkpt lat="51.9598548766" lon="-2.2287838440"><ele>18.40</ele><time>2014-06-25T10:31:14Z</time></trkpt><trkpt lat="51.9598885719" lon="-2.2287763841"><ele>17.44</ele><time>2014-06-25T10:31:30Z</time></trkpt><trkpt lat="51.9599243626" lon="-2.2287600394"><ele>17.92</ele><time>2014-06-25T10:31:48Z</time></trkpt><trkpt lat="51.9600182399" lon="-2.2287274338"><ele>17.92</ele><time>2014-06-25T10:31:59Z</time></trkpt><trkpt lat="51.9601655938" lon="-2.2286904696"><ele>17.92</ele><time>2014-06-25T10:32:13Z</time></trkpt><trkpt lat="51.9603077509" lon="-2.2286352329"><ele>17.44</ele><time>2014-06-25T10:32:29Z</time></trkpt><trkpt lat="51.9604234211" lon="-2.2285739612"><ele>17.92</ele><time>2014-06-25T10:32:44Z</time></trkpt><trkpt lat="51.9604350720" lon="-2.2285659146"><ele>17.44</ele><time>2014-06-25T10:33:02Z</time></trkpt><trkpt lat="51.9604843576" lon="-2.2285635676"><ele>17.44</ele><time>2014-06-25T10:33:18Z</time></trkpt><trkpt lat="51.9605914783" lon="-2.2285445407"><ele>17.92</ele><time>2014-06-25T10:33:33Z</time></trkpt><trkpt lat="51.9607015327" lon="-2.2285128571"><ele>16.96</ele><time>2014-06-25T10:33:50Z</time></trkpt><trkpt lat="51.9607561827" lon="-2.2284955904"><ele>16.48</ele><time>2014-06-25T10:34:08Z</time></trkpt><trkpt lat="51.9607981760" lon="-2.2285046428"><ele>16.00</ele><time>2014-06-25T10:34:38Z</time></trkpt><trkpt lat="51.9607949071" lon="-2.2285012063"><ele>16.00</ele><time>2014-06-25T10:35:06Z</time></trkpt><trkpt lat="51.9607762992" lon="-2.2284848616"><ele>16.00</ele><time>2014-06-25T10:35:29Z</time></trkpt><trkpt lat="51.9607374072" lon="-2.2283397708"><ele>16.00</ele><time>2014-06-25T10:35:43Z</time></trkpt><trkpt lat="51.9607032929" lon="-2.2281079274"><ele>14.56</ele><time>2014-06-25T10:35:59Z</time></trkpt><trkpt lat="51.9606921449" lon="-2.2279997170"><ele>14.08</ele><time>2014-06-25T10:36:06Z</time></trkpt><trkpt lat="51.9607150275" lon="-2.2277449071"><ele>14.56</ele><time>2014-06-25T10:36:22Z</time></trkpt><trkpt lat="51.9607999362" lon="-2.2275214456"><ele>14.08</ele><time>2014-06-25T10:36:41Z</time></trkpt><trkpt lat="51.9608980883" lon="-2.2274014167"><ele>14.56</ele><time>2014-06-25T10:36:57Z</time></trkpt><trkpt lat="51.9609904569" lon="-2.2273078747"><ele>14.08</ele><time>2014-06-25T10:37:11Z</time></trkpt><trkpt lat="51.9611161016" lon="-2.2271554079"><ele>13.60</ele><time>2014-06-25T10:37:29Z</time></trkpt><trkpt lat="51.9612093922" lon="-2.2270793002"><ele>13.60</ele><time>2014-06-25T10:37:39Z</time></trkpt><trkpt lat="51.9614795409" lon="-2.2269363049"><ele>13.60</ele><time>2014-06-25T10:37:58Z</time></trkpt><trkpt lat="51.9616052695" lon="-2.2268516477"><ele>13.60</ele><time>2014-06-25T10:38:14Z</time></trkpt><trkpt lat="51.9617529586" lon="-2.2267988417"><ele>13.60</ele><time>2014-06-25T10:38:29Z</time></trkpt><trkpt lat="51.9618765078" lon="-2.2267488018"><ele>13.12</ele><time>2014-06-25T10:38:45Z</time></trkpt><trkpt lat="51.9620383624" lon="-2.2267187107"><ele>13.12</ele><time>2014-06-25T10:39:00Z</time></trkpt><trkpt lat="51.9622137956" lon="-2.2266224027"><ele>12.63</ele><time>2014-06-25T10:39:14Z</time></trkpt><trkpt lat="51.9623541087" lon="-2.2265830915"><ele>12.63</ele><time>2014-06-25T10:39:30Z</time></trkpt><trkpt lat="51.9625007082" lon="-2.2265526652"><ele>12.63</ele><time>2014-06-25T10:39:50Z</time></trkpt><trkpt lat="51.9626440387" lon="-2.2265190538"><ele>12.63</ele><time>2014-06-25T10:40:07Z</time></trkpt><trkpt lat="51.9627663307" lon="-2.2264799941"><ele>11.67</ele><time>2014-06-25T10:40:23Z</time></trkpt><trkpt lat="51.9629183784" lon="-2.2264773119"><ele>12.15</ele><time>2014-06-25T10:40:42Z</time></trkpt><trkpt lat="51.9631041214" lon="-2.2263986059"><ele>12.15</ele><time>2014-06-25T10:41:01Z</time></trkpt><trkpt lat="51.9633611944" lon="-2.2263641562"><ele>11.67</ele><time>2014-06-25T10:41:21Z</time></trkpt><trkpt lat="51.9636194408" lon="-2.2263246775"><ele>12.15</ele><time>2014-06-25T10:41:40Z</time></trkpt><trkpt lat="51.9637849834" lon="-2.2263177205"><ele>12.15</ele><time>2014-06-25T10:41:55Z</time></trkpt><trkpt lat="51.9638527092" lon="-2.2262986936"><ele>12.15</ele><time>2014-06-25T10:42:01Z</time></trkpt><trkpt lat="51.9640167430" lon="-2.2262607235"><ele>11.67</ele><time>2014-06-25T10:42:16Z</time></trkpt><trkpt lat="51.9640936889" lon="-2.2262280341"><ele>12.15</ele><time>2014-06-25T10:42:24Z</time></trkpt><trkpt lat="51.9642447308" lon="-2.2261205781"><ele>11.19</ele><time>2014-06-25T10:42:40Z</time></trkpt><trkpt lat="51.9643878099" lon="-2.2260094341"><ele>11.67</ele><time>2014-06-25T10:42:57Z</time></trkpt><trkpt lat="51.9645846169" lon="-2.2258787602"><ele>11.67</ele><time>2014-06-25T10:43:14Z</time></trkpt><trkpt lat="51.9647141173" lon="-2.2257099487"><ele>11.67</ele><time>2014-06-25T10:43:31Z</time></trkpt><trkpt lat="51.9648302905" lon="-2.2257015668"><ele>11.67</ele><time>2014-06-25T10:43:41Z</time></trkpt><trkpt lat="51.9648494851" lon="-2.2258005571"><ele>11.19</ele><time>2014-06-25T10:43:54Z</time></trkpt><trkpt lat="51.9648576993" lon="-2.2258137167"><ele>11.67</ele><time>2014-06-25T10:44:12Z</time></trkpt><trkpt lat="51.9648574479" lon="-2.2258199193"><ele>12.15</ele><time>2014-06-25T10:44:38Z</time></trkpt><trkpt lat="51.9648420252" lon="-2.2257992160"><ele>11.67</ele><time>2014-06-25T10:44:55Z</time></trkpt><trkpt lat="51.9648648240" lon="-2.2258148901"><ele>11.67</ele><time>2014-06-25T10:44:58Z</time></trkpt><trkpt lat="51.9648856111" lon="-2.2258666903"><ele>11.67</ele><time>2014-06-25T10:45:02Z</time></trkpt><trkpt lat="51.9649042189" lon="-2.2259694524"><ele>11.67</ele><time>2014-06-25T10:45:09Z</time></trkpt><trkpt lat="51.9649631437" lon="-2.2261749767"><ele>12.15</ele><time>2014-06-25T10:45:22Z</time></trkpt><trkpt lat="51.9649983477" lon="-2.2262846120"><ele>12.15</ele><time>2014-06-25T10:45:29Z</time></trkpt><trkpt lat="51.9650112558" lon="-2.2263280302"><ele>12.15</ele><time>2014-06-25T10:45:32Z</time></trkpt><trkpt lat="51.9650641456" lon="-2.2265446186"><ele>12.63</ele><time>2014-06-25T10:45:45Z</time></trkpt><trkpt lat="51.9651333801" lon="-2.2267629672"><ele>12.63</ele><time>2014-06-25T10:46:00Z</time></trkpt><trkpt lat="51.9651996810" lon="-2.2269575112"><ele>13.12</ele><time>2014-06-25T10:46:14Z</time></trkpt><trkpt lat="51.9652815722" lon="-2.2271810565"><ele>13.60</ele><time>2014-06-25T10:46:30Z</time></trkpt><trkpt lat="51.9653183687" lon="-2.2272247262"><ele>14.08</ele><time>2014-06-25T10:46:42Z</time></trkpt><trkpt lat="51.9653272536" lon="-2.2272091359"><ele>13.60</ele><time>2014-06-25T10:46:55Z</time></trkpt><trkpt lat="51.9654568378" lon="-2.2270338703"><ele>14.08</ele><time>2014-06-25T10:47:11Z</time></trkpt><trkpt lat="51.9655045308" lon="-2.2269539908"><ele>13.60</ele><time>2014-06-25T10:47:18Z</time></trkpt><trkpt lat="51.9655338675" lon="-2.2269007657"><ele>13.60</ele><time>2014-06-25T10:47:23Z</time></trkpt><trkpt lat="51.9656212907" lon="-2.2268018592"><ele>13.12</ele><time>2014-06-25T10:47:34Z</time></trkpt><trkpt lat="51.9657169282" lon="-2.2266501468"><ele>13.12</ele><time>2014-06-25T10:47:47Z</time></trkpt><trkpt lat="51.9657367934" lon="-2.2266275994"><ele>13.12</ele><time>2014-06-25T10:47:49Z</time></trkpt><trkpt lat="51.9657723326" lon="-2.2265833430"><ele>13.60</ele><time>2014-06-25T10:47:54Z</time></trkpt><trkpt lat="51.9658333529" lon="-2.2265084088"><ele>13.60</ele><time>2014-06-25T10:48:01Z</time></trkpt><trkpt lat="51.9658777770" lon="-2.2264171299"><ele>13.12</ele><time>2014-06-25T10:48:12Z</time></trkpt><trkpt lat="51.9659173395" lon="-2.2263553552"><ele>13.60</ele><time>2014-06-25T10:48:17Z</time></trkpt><trkpt lat="51.9660087023" lon="-2.2262442950"><ele>14.08</ele><time>2014-06-25T10:48:29Z</time></trkpt><trkpt lat="51.9661145657" lon="-2.2260804288"><ele>13.60</ele><time>2014-06-25T10:48:43Z</time></trkpt><trkpt lat="51.9661755022" lon="-2.2260131221"><ele>13.60</ele><time>2014-06-25T10:48:53Z</time></trkpt><trkpt lat="51.9662808627" lon="-2.2258735634"><ele>14.08</ele><time>2014-06-25T10:49:07Z</time></trkpt><trkpt lat="51.9662915077" lon="-2.2258654330"><ele>13.60</ele><time>2014-06-25T10:49:08Z</time></trkpt><trkpt lat="51.9663284719" lon="-2.2258068435"><ele>13.60</ele><time>2014-06-25T10:49:13Z</time></trkpt><trkpt lat="51.9664474111" lon="-2.2256319132"><ele>13.12</ele><time>2014-06-25T10:49:28Z</time></trkpt><trkpt lat="51.9664497580" lon="-2.2256232798"><ele>13.60</ele><time>2014-06-25T10:49:29Z</time></trkpt><trkpt lat="51.9664987922" lon="-2.2255498543"><ele>12.63</ele><time>2014-06-25T10:49:40Z</time></trkpt><trkpt lat="51.9665048271" lon="-2.2255413048"><ele>13.12</ele><time>2014-06-25T10:49:41Z</time></trkpt><trkpt lat="51.9666137919" lon="-2.2253764328"><ele>13.12</ele><time>2014-06-25T10:49:55Z</time></trkpt><trkpt lat="51.9667212479" lon="-2.2252160031"><ele>13.60</ele><time>2014-06-25T10:50:10Z</time></trkpt><trkpt lat="51.9668159634" lon="-2.2250794619"><ele>13.60</ele><time>2014-06-25T10:50:23Z</time></trkpt><trkpt lat="51.9669421110" lon="-2.2249263246"><ele>14.08</ele><time>2014-06-25T10:50:40Z</time></trkpt><trkpt lat="51.9670336414" lon="-2.2247789707"><ele>13.60</ele><time>2014-06-25T10:50:54Z</time></trkpt><trkpt lat="51.9670807477" lon="-2.2247000970"><ele>12.63</ele><time>2014-06-25T10:51:01Z</time></trkpt><trkpt lat="51.9671540894" lon="-2.2245965805"><ele>12.63</ele><time>2014-06-25T10:51:13Z</time></trkpt><trkpt lat="51.9671689253" lon="-2.2245944850"><ele>13.12</ele><time>2014-06-25T10:51:28Z</time></trkpt><trkpt lat="51.9671670813" lon="-2.2245831694"><ele>13.12</ele><time>2014-06-25T10:51:42Z</time></trkpt><trkpt lat="51.9671659078" lon="-2.2245764639"><ele>12.63</ele><time>2014-06-25T10:51:56Z</time></trkpt><trkpt lat="51.9671649858" lon="-2.2245788109"><ele>12.63</ele><time>2014-06-25T10:52:13Z</time></trkpt><trkpt lat="51.9671652373" lon="-2.2245800681"><ele>12.15</ele><time>2014-06-25T10:52:37Z</time></trkpt><trkpt lat="51.9671670813" lon="-2.2245850135"><ele>12.63</ele><time>2014-06-25T10:52:57Z</time></trkpt><trkpt lat="51.9671640638" lon="-2.2245988436"><ele>12.15</ele><time>2014-06-25T10:53:09Z</time></trkpt><trkpt lat="51.9671617169" lon="-2.2245905455"><ele>12.15</ele><time>2014-06-25T10:53:21Z</time></trkpt><trkpt lat="51.9671618007" lon="-2.2245872766"><ele>12.63</ele><time>2014-06-25T10:53:40Z</time></trkpt><trkpt lat="51.9671620522" lon="-2.2245868575"><ele>12.63</ele><time>2014-06-25T10:53:41Z</time></trkpt><trkpt lat="51.9671680871" lon="-2.2245973349"><ele>13.12</ele><time>2014-06-25T10:53:52Z</time></trkpt><trkpt lat="51.9671677519" lon="-2.2245975025"><ele>12.63</ele><time>2014-06-25T10:54:12Z</time></trkpt><trkpt lat="51.9671652373" lon="-2.2246004362"><ele>12.63</ele><time>2014-06-25T10:54:32Z</time></trkpt><trkpt lat="51.9671575259" lon="-2.2245962452"><ele>12.63</ele><time>2014-06-25T10:54:46Z</time></trkpt><trkpt lat="51.9671612978" lon="-2.2245651484"><ele>12.63</ele><time>2014-06-25T10:54:57Z</time></trkpt><trkpt lat="51.9671643991" lon="-2.2245714348"><ele>12.63</ele><time>2014-06-25T10:55:10Z</time></trkpt><trkpt lat="51.9671653211" lon="-2.2245768830"><ele>13.12</ele><time>2014-06-25T10:55:31Z</time></trkpt><trkpt lat="51.9671612978" lon="-2.2245737817"><ele>13.60</ele><time>2014-06-25T10:55:50Z</time></trkpt><trkpt lat="51.9671659917" lon="-2.2245546710"><ele>11.67</ele><time>2014-06-25T10:56:04Z</time></trkpt><trkpt lat="51.9671726134" lon="-2.2245552577"><ele>12.15</ele><time>2014-06-25T10:56:25Z</time></trkpt><trkpt lat="51.9671803247" lon="-2.2245574370"><ele>12.63</ele><time>2014-06-25T10:56:36Z</time></trkpt><trkpt lat="51.9671840966" lon="-2.2245588619"><ele>13.12</ele><time>2014-06-25T10:56:51Z</time></trkpt><trkpt lat="51.9671821687" lon="-2.2245106660"><ele>13.12</ele><time>2014-06-25T10:57:01Z</time></trkpt><trkpt lat="51.9671960827" lon="-2.2244750429"><ele>13.12</ele><time>2014-06-25T10:57:05Z</time></trkpt><trkpt lat="51.9672187977" lon="-2.2244180460"><ele>12.63</ele><time>2014-06-25T10:57:10Z</time></trkpt><trkpt lat="51.9672306161" lon="-2.2243938223"><ele>12.63</ele><time>2014-06-25T10:57:12Z</time></trkpt><trkpt lat="51.9672839250" lon="-2.2243633121"><ele>11.67</ele><time>2014-06-25T10:57:18Z</time></trkpt><trkpt lat="51.9673094898" lon="-2.2243061475"><ele>11.67</ele><time>2014-06-25T10:57:22Z</time></trkpt><trkpt lat="51.9673364796" lon="-2.2242956702"><ele>13.12</ele><time>2014-06-25T10:57:25Z</time></trkpt><trkpt lat="51.9673899561" lon="-2.2242064029"><ele>13.12</ele><time>2014-06-25T10:57:31Z</time></trkpt><trkpt lat="51.9674793910" lon="-2.2240976896"><ele>13.12</ele><time>2014-06-25T10:57:41Z</time></trkpt><trkpt lat="51.9674839173" lon="-2.2240928281"><ele>12.15</ele><time>2014-06-25T10:57:42Z</time></trkpt><trkpt lat="51.9675494637" lon="-2.2240006272"><ele>13.12</ele><time>2014-06-25T10:57:50Z</time></trkpt><trkpt lat="51.9675788004" lon="-2.2239410318"><ele>12.15</ele><time>2014-06-25T10:57:54Z</time></trkpt><trkpt lat="51.9676230568" lon="-2.2238889802"><ele>12.63</ele><time>2014-06-25T10:57:59Z</time></trkpt><trkpt lat="51.9676676486" lon="-2.2238531057"><ele>12.63</ele><time>2014-06-25T10:58:03Z</time></trkpt><trkpt lat="51.9677263219" lon="-2.2237905767"><ele>12.63</ele><time>2014-06-25T10:58:09Z</time></trkpt><trkpt lat="51.9678326882" lon="-2.2237018123"><ele>12.63</ele><time>2014-06-25T10:58:20Z</time></trkpt><trkpt lat="51.9679688103" lon="-2.2236086056"><ele>12.63</ele><time>2014-06-25T10:58:33Z</time></trkpt><trkpt lat="51.9680071156" lon="-2.2235900816"><ele>12.63</ele><time>2014-06-25T10:58:36Z</time></trkpt><trkpt lat="51.9680253044" lon="-2.2235688753"><ele>13.12</ele><time>2014-06-25T10:58:38Z</time></trkpt><trkpt lat="51.9680671301" lon="-2.2235563025"><ele>11.67</ele><time>2014-06-25T10:58:41Z</time></trkpt><trkpt lat="51.9680905156" lon="-2.2235400416"><ele>12.63</ele><time>2014-06-25T10:58:43Z</time></trkpt><trkpt lat="51.9682296552" lon="-2.2234103736"><ele>11.67</ele><time>2014-06-25T10:58:57Z</time></trkpt><trkpt lat="51.9682943635" lon="-2.2233399656"><ele>11.67</ele><time>2014-06-25T10:59:04Z</time></trkpt><trkpt lat="51.9684278872" lon="-2.2232155781"><ele>12.15</ele><time>2014-06-25T10:59:17Z</time></trkpt><trkpt lat="51.9685363490" lon="-2.2231263947"><ele>12.15</ele><time>2014-06-25T10:59:28Z</time></trkpt><trkpt lat="51.9686747342" lon="-2.2229719162"><ele>12.63</ele><time>2014-06-25T10:59:44Z</time></trkpt><trkpt lat="51.9686833676" lon="-2.2229643725"><ele>13.60</ele><time>2014-06-25T10:59:45Z</time></trkpt><trkpt lat="51.9688242674" lon="-2.2228573356"><ele>13.12</ele><time>2014-06-25T10:59:59Z</time></trkpt><trkpt lat="51.9689699449" lon="-2.2228314355"><ele>12.63</ele><time>2014-06-25T11:00:11Z</time></trkpt><trkpt lat="51.9691187236" lon="-2.2227939684"><ele>13.60</ele><time>2014-06-25T11:00:25Z</time></trkpt><trkpt lat="51.9692526665" lon="-2.2227025218"><ele>14.08</ele><time>2014-06-25T11:00:37Z</time></trkpt><trkpt lat="51.9693087414" lon="-2.2226671502"><ele>13.60</ele><time>2014-06-25T11:00:42Z</time></trkpt><trkpt lat="51.9693767186" lon="-2.2226062138"><ele>13.60</ele><time>2014-06-25T11:00:49Z</time></trkpt><trkpt lat="51.9694309495" lon="-2.2225534916"><ele>13.60</ele><time>2014-06-25T11:00:54Z</time></trkpt><trkpt lat="51.9696062990" lon="-2.2224047966"><ele>14.08</ele><time>2014-06-25T11:01:11Z</time></trkpt><trkpt lat="51.9696585182" lon="-2.2223633900"><ele>13.60</ele><time>2014-06-25T11:01:16Z</time></trkpt><trkpt lat="51.9696895313" lon="-2.2223079018"><ele>13.12</ele><time>2014-06-25T11:01:21Z</time></trkpt><trkpt lat="51.9697385654" lon="-2.2222944070"><ele>15.04</ele><time>2014-06-25T11:01:27Z</time></trkpt><trkpt lat="51.9698696584" lon="-2.2222608794"><ele>14.08</ele><time>2014-06-25T11:01:41Z</time></trkpt><trkpt lat="51.9698749389" lon="-2.2222502343"><ele>14.08</ele><time>2014-06-25T11:01:42Z</time></trkpt><trkpt lat="51.9699253142" lon="-2.2221473884"><ele>13.60</ele><time>2014-06-25T11:01:56Z</time></trkpt><trkpt lat="51.9699937105" lon="-2.2219882160"><ele>13.60</ele><time>2014-06-25T11:02:11Z</time></trkpt><trkpt lat="51.9700034335" lon="-2.2219752241"><ele>14.08</ele><time>2014-06-25T11:02:28Z</time></trkpt><trkpt lat="51.9700175151" lon="-2.2219599690"><ele>14.08</ele><time>2014-06-25T11:02:41Z</time></trkpt><trkpt lat="51.9700249750" lon="-2.2219574545"><ele>14.56</ele><time>2014-06-25T11:02:58Z</time></trkpt><trkpt lat="51.9700714108" lon="-2.2218911536"><ele>13.60</ele><time>2014-06-25T11:03:14Z</time></trkpt><trkpt lat="51.9700916111" lon="-2.2218719590"><ele>14.08</ele><time>2014-06-25T11:03:31Z</time></trkpt><trkpt lat="51.9700911921" lon="-2.2218722105"><ele>14.56</ele><time>2014-06-25T11:03:51Z</time></trkpt><trkpt lat="51.9700968079" lon="-2.2218712885"><ele>14.56</ele><time>2014-06-25T11:04:12Z</time></trkpt><trkpt lat="51.9700941257" lon="-2.2218686063"><ele>14.08</ele><time>2014-06-25T11:04:33Z</time></trkpt><trkpt lat="51.9700965565" lon="-2.2218537703"><ele>14.56</ele><time>2014-06-25T11:04:51Z</time></trkpt><trkpt lat="51.9701144099" lon="-2.2217594739"><ele>14.08</ele><time>2014-06-25T11:05:04Z</time></trkpt><trkpt lat="51.9701828063" lon="-2.2215458192"><ele>14.08</ele><time>2014-06-25T11:05:20Z</time></trkpt><trkpt lat="51.9702729117" lon="-2.2213208489"><ele>14.08</ele><time>2014-06-25T11:05:34Z</time></trkpt><trkpt lat="51.9702917710" lon="-2.2212636005"><ele>14.56</ele><time>2014-06-25T11:05:49Z</time></trkpt><trkpt lat="51.9702971354" lon="-2.2212469205"><ele>14.08</ele><time>2014-06-25T11:06:03Z</time></trkpt><trkpt lat="51.9702905975" lon="-2.2212326713"><ele>14.56</ele><time>2014-06-25T11:06:20Z</time></trkpt><trkpt lat="51.9703252148" lon="-2.2211755067"><ele>15.04</ele><time>2014-06-25T11:06:40Z</time></trkpt><trkpt lat="51.9703405537" lon="-2.2211439069"><ele>14.56</ele><time>2014-06-25T11:06:52Z</time></trkpt><trkpt lat="51.9703407213" lon="-2.2211482655"><ele>14.56</ele><time>2014-06-25T11:07:10Z</time></trkpt><trkpt lat="51.9703504443" lon="-2.2211169172"><ele>14.56</ele><time>2014-06-25T11:07:27Z</time></trkpt><trkpt lat="51.9703760929" lon="-2.2210852336"><ele>14.56</ele><time>2014-06-25T11:07:41Z</time></trkpt><trkpt lat="51.9703785237" lon="-2.2210781928"><ele>14.56</ele><time>2014-06-25T11:07:49Z</time></trkpt><trkpt lat="51.9703915156" lon="-2.2210517060"><ele>14.56</ele><time>2014-06-25T11:08:03Z</time></trkpt><trkpt lat="51.9704006519" lon="-2.2210530471"><ele>14.56</ele><time>2014-06-25T11:08:18Z</time></trkpt><trkpt lat="51.9704086985" lon="-2.2210514545"><ele>14.08</ele><time>2014-06-25T11:08:33Z</time></trkpt><trkpt lat="51.9704095367" lon="-2.2210388817"><ele>14.56</ele><time>2014-06-25T11:08:46Z</time></trkpt><trkpt lat="51.9704171643" lon="-2.2210276499"><ele>14.56</ele><time>2014-06-25T11:09:09Z</time></trkpt><trkpt lat="51.9704674557" lon="-2.2209289111"><ele>14.08</ele><time>2014-06-25T11:09:21Z</time></trkpt><trkpt lat="51.9705148973" lon="-2.2208911087"><ele>14.08</ele><time>2014-06-25T11:09:25Z</time></trkpt><trkpt lat="51.9705818687" lon="-2.2208019253"><ele>14.08</ele><time>2014-06-25T11:09:33Z</time></trkpt><trkpt lat="51.9706072658" lon="-2.2207400668"><ele>14.56</ele><time>2014-06-25T11:09:38Z</time></trkpt><trkpt lat="51.9706298970" lon="-2.2206908651"><ele>14.08</ele><time>2014-06-25T11:09:42Z</time></trkpt><trkpt lat="51.9706495106" lon="-2.2206751071"><ele>14.56</ele><time>2014-06-25T11:09:44Z</time></trkpt><trkpt lat="51.9707523566" lon="-2.2205400746"><ele>14.08</ele><time>2014-06-25T11:09:56Z</time></trkpt><trkpt lat="51.9708419591" lon="-2.2204196267"><ele>13.12</ele><time>2014-06-25T11:10:10Z</time></trkpt><trkpt lat="51.9708783366" lon="-2.2203736100"><ele>14.08</ele><time>2014-06-25T11:10:15Z</time></trkpt><trkpt lat="51.9709140435" lon="-2.2203410883"><ele>13.60</ele><time>2014-06-25T11:10:20Z</time></trkpt><trkpt lat="51.9709914085" lon="-2.2202440258"><ele>14.08</ele><time>2014-06-25T11:10:31Z</time></trkpt><trkpt lat="51.9710728806" lon="-2.2201106697"><ele>14.08</ele><time>2014-06-25T11:10:43Z</time></trkpt><trkpt lat="51.9711510837" lon="-2.2199920658"><ele>13.60</ele><time>2014-06-25T11:10:56Z</time></trkpt><trkpt lat="51.9711702783" lon="-2.2199650761"><ele>14.08</ele><time>2014-06-25T11:10:59Z</time></trkpt><trkpt lat="51.9711827673" lon="-2.2199391760"><ele>14.08</ele><time>2014-06-25T11:11:01Z</time></trkpt><trkpt lat="51.9712110143" lon="-2.2198937461"><ele>14.56</ele><time>2014-06-25T11:11:05Z</time></trkpt><trkpt lat="51.9712776504" lon="-2.2198095080"><ele>13.60</ele><time>2014-06-25T11:11:14Z</time></trkpt><trkpt lat="51.9713194761" lon="-2.2197630722"><ele>13.60</ele><time>2014-06-25T11:11:19Z</time></trkpt><trkpt lat="51.9713514112" lon="-2.2197142057"><ele>14.08</ele><time>2014-06-25T11:11:23Z</time></trkpt><trkpt lat="51.9713659119" lon="-2.2196919098"><ele>14.08</ele><time>2014-06-25T11:11:25Z</time></trkpt><trkpt lat="51.9714758825" lon="-2.2195542790"><ele>13.60</ele><time>2014-06-25T11:11:39Z</time></trkpt><trkpt lat="51.9715342205" lon="-2.2194593120"><ele>14.08</ele><time>2014-06-25T11:11:48Z</time></trkpt><trkpt lat="51.9715667423" lon="-2.2194338311"><ele>14.08</ele><time>2014-06-25T11:11:52Z</time></trkpt><trkpt lat="51.9715922233" lon="-2.2193916701"><ele>14.08</ele><time>2014-06-25T11:11:56Z</time></trkpt><trkpt lat="51.9716334622" lon="-2.2193168197"><ele>13.60</ele><time>2014-06-25T11:12:03Z</time></trkpt><trkpt lat="51.9716650620" lon="-2.2192796040"><ele>14.08</ele><time>2014-06-25T11:12:08Z</time></trkpt><trkpt lat="51.9717073068" lon="-2.2191448230"><ele>14.08</ele><time>2014-06-25T11:12:18Z</time></trkpt><trkpt lat="51.9717254117" lon="-2.2190655302"><ele>14.56</ele><time>2014-06-25T11:12:24Z</time></trkpt><trkpt lat="51.9717511442" lon="-2.2190263867"><ele>14.08</ele><time>2014-06-25T11:12:28Z</time></trkpt><trkpt lat="51.9718476199" lon="-2.2188383806"><ele>14.08</ele><time>2014-06-25T11:12:44Z</time></trkpt><trkpt lat="51.9719103165" lon="-2.2187152505"><ele>14.08</ele><time>2014-06-25T11:12:55Z</time></trkpt><trkpt lat="51.9719692413" lon="-2.2185902763"><ele>14.08</ele><time>2014-06-25T11:13:06Z</time></trkpt><trkpt lat="51.9720098097" lon="-2.2184875980"><ele>14.56</ele><time>2014-06-25T11:13:15Z</time></trkpt><trkpt lat="51.9720671419" lon="-2.2183321975"><ele>14.56</ele><time>2014-06-25T11:13:27Z</time></trkpt><trkpt lat="51.9721459318" lon="-2.2182006855"><ele>14.56</ele><time>2014-06-25T11:13:40Z</time></trkpt><trkpt lat="51.9722404797" lon="-2.2180244140"><ele>15.04</ele><time>2014-06-25T11:13:56Z</time></trkpt><trkpt lat="51.9722736720" lon="-2.2179646511"><ele>15.04</ele><time>2014-06-25T11:14:07Z</time></trkpt><trkpt lat="51.9722854905" lon="-2.2179600410"><ele>15.04</ele><time>2014-06-25T11:14:23Z</time></trkpt><trkpt lat="51.9722781982" lon="-2.2179480549"><ele>15.52</ele><time>2014-06-25T11:14:34Z</time></trkpt><trkpt lat="51.9722793717" lon="-2.2179535031"><ele>15.04</ele><time>2014-06-25T11:14:47Z</time></trkpt><trkpt lat="51.9722828083" lon="-2.2179517429"><ele>15.04</ele><time>2014-06-25T11:14:59Z</time></trkpt><trkpt lat="51.9722873345" lon="-2.2179333027"><ele>15.52</ele><time>2014-06-25T11:15:10Z</time></trkpt><trkpt lat="51.9722867478" lon="-2.2179307882"><ele>15.04</ele><time>2014-06-25T11:15:30Z</time></trkpt><trkpt lat="51.9722903520" lon="-2.2179307044"><ele>15.04</ele><time>2014-06-25T11:15:44Z</time></trkpt><trkpt lat="51.9722835626" lon="-2.2179343086"><ele>15.04</ele><time>2014-06-25T11:15:54Z</time></trkpt><trkpt lat="51.9722897653" lon="-2.2179236636"><ele>15.04</ele><time>2014-06-25T11:16:05Z</time></trkpt><trkpt lat="51.9722928666" lon="-2.2179004457"><ele>15.04</ele><time>2014-06-25T11:16:18Z</time></trkpt><trkpt lat="51.9723135699" lon="-2.2178975120"><ele>15.04</ele><time>2014-06-25T11:16:33Z</time></trkpt><trkpt lat="51.9723320100" lon="-2.2178768925"><ele>13.60</ele><time>2014-06-25T11:16:38Z</time></trkpt><trkpt lat="51.9723422360" lon="-2.2178219073"><ele>15.04</ele><time>2014-06-25T11:16:51Z</time></trkpt><trkpt lat="51.9723451696" lon="-2.2178190574"><ele>14.56</ele><time>2014-06-25T11:17:11Z</time></trkpt><trkpt lat="51.9723473489" lon="-2.2178069875"><ele>15.04</ele><time>2014-06-25T11:17:34Z</time></trkpt><trkpt lat="51.9723495282" lon="-2.2178043053"><ele>15.04</ele><time>2014-06-25T11:17:51Z</time></trkpt><trkpt lat="51.9723440800" lon="-2.2178004496"><ele>15.04</ele><time>2014-06-25T11:18:16Z</time></trkpt><trkpt lat="51.9723451696" lon="-2.2178068198"><ele>15.04</ele><time>2014-06-25T11:18:43Z</time></trkpt><trkpt lat="51.9723480195" lon="-2.2178078257"><ele>15.04</ele><time>2014-06-25T11:19:10Z</time></trkpt><trkpt lat="51.9723468460" lon="-2.2178127710"><ele>15.04</ele><time>2014-06-25T11:19:36Z</time></trkpt><trkpt lat="51.9723493606" lon="-2.2178138606"><ele>15.04</ele><time>2014-06-25T11:19:59Z</time></trkpt><trkpt lat="51.9723519590" lon="-2.2178132739"><ele>14.56</ele><time>2014-06-25T11:20:25Z</time></trkpt><trkpt lat="51.9723969698" lon="-2.2177363280"><ele>15.04</ele><time>2014-06-25T11:20:36Z</time></trkpt><trkpt lat="51.9724329282" lon="-2.2176976036"><ele>15.04</ele><time>2014-06-25T11:20:51Z</time></trkpt><trkpt lat="51.9724516198" lon="-2.2176898085"><ele>15.04</ele><time>2014-06-25T11:20:58Z</time></trkpt><trkpt lat="51.9725996442" lon="-2.2175747249"><ele>15.04</ele><time>2014-06-25T11:21:17Z</time></trkpt><trkpt lat="51.9727286417" lon="-2.2174170613"><ele>15.04</ele><time>2014-06-25T11:21:35Z</time></trkpt><trkpt lat="51.9728650991" lon="-2.2172246128"><ele>15.52</ele><time>2014-06-25T11:21:57Z</time></trkpt><trkpt lat="51.9729601499" lon="-2.2169639356"><ele>15.52</ele><time>2014-06-25T11:22:17Z</time></trkpt><trkpt lat="51.9730464835" lon="-2.2168427333"><ele>16.00</ele><time>2014-06-25T11:22:35Z</time></trkpt><trkpt lat="51.9731173106" lon="-2.2167361155"><ele>16.48</ele><time>2014-06-25T11:22:49Z</time></trkpt><trkpt lat="51.9732519239" lon="-2.2165746801"><ele>16.48</ele><time>2014-06-25T11:23:08Z</time></trkpt><trkpt lat="51.9732565340" lon="-2.2165683936"><ele>16.96</ele><time>2014-06-25T11:23:24Z</time></trkpt><trkpt lat="51.9732579589" lon="-2.2165662982"><ele>16.96</ele><time>2014-06-25T11:23:43Z</time></trkpt><trkpt lat="51.9732573722" lon="-2.2165652923"><ele>16.96</ele><time>2014-06-25T11:23:49Z</time></trkpt><trkpt lat="51.9732679334" lon="-2.2165699862"><ele>16.96</ele><time>2014-06-25T11:24:02Z</time></trkpt><trkpt lat="51.9732731301" lon="-2.2165637836"><ele>16.96</ele><time>2014-06-25T11:24:19Z</time></trkpt><trkpt lat="51.9733048137" lon="-2.2165460978"><ele>16.00</ele><time>2014-06-25T11:24:31Z</time></trkpt><trkpt lat="51.9733065739" lon="-2.2165408172"><ele>16.48</ele><time>2014-06-25T11:24:40Z</time></trkpt><trkpt lat="51.9733397663" lon="-2.2164049465"><ele>16.96</ele><time>2014-06-25T11:24:54Z</time></trkpt><trkpt lat="51.9733655825" lon="-2.2162935510"><ele>16.48</ele><time>2014-06-25T11:25:04Z</time></trkpt><trkpt lat="51.9733955059" lon="-2.2161495499"><ele>16.96</ele><time>2014-06-25T11:25:14Z</time></trkpt><trkpt lat="51.9734441210" lon="-2.2159545869"><ele>16.96</ele><time>2014-06-25T11:25:28Z</time></trkpt><trkpt lat="51.9734490663" lon="-2.2159168683"><ele>16.96</ele><time>2014-06-25T11:25:31Z</time></trkpt><trkpt lat="51.9734869525" lon="-2.2157314606"><ele>16.48</ele><time>2014-06-25T11:25:44Z</time></trkpt><trkpt lat="51.9735235814" lon="-2.2155095916"><ele>16.48</ele><time>2014-06-25T11:25:58Z</time></trkpt><trkpt lat="51.9735607971" lon="-2.2152969427"><ele>16.48</ele><time>2014-06-25T11:26:13Z</time></trkpt><trkpt lat="51.9735450391" lon="-2.2152246907"><ele>16.48</ele><time>2014-06-25T11:26:18Z</time></trkpt><trkpt lat="51.9735362381" lon="-2.2151934262"><ele>16.00</ele><time>2014-06-25T11:26:20Z</time></trkpt><trkpt lat="51.9735243358" lon="-2.2151519358"><ele>16.48</ele><time>2014-06-25T11:26:23Z</time></trkpt><trkpt lat="51.9735010341" lon="-2.2149920929"><ele>16.00</ele><time>2014-06-25T11:26:32Z</time></trkpt><trkpt lat="51.9734987710" lon="-2.2148564737"><ele>16.48</ele><time>2014-06-25T11:26:41Z</time></trkpt><trkpt lat="51.9735074043" lon="-2.2148218565"><ele>16.48</ele><time>2014-06-25T11:26:43Z</time></trkpt><trkpt lat="51.9735504035" lon="-2.2146039270"><ele>16.96</ele><time>2014-06-25T11:26:55Z</time></trkpt><trkpt lat="51.9735638145" lon="-2.2145597544"><ele>16.96</ele><time>2014-06-25T11:26:58Z</time></trkpt><trkpt lat="51.9735882897" lon="-2.2144862451"><ele>16.48</ele><time>2014-06-25T11:27:03Z</time></trkpt><trkpt lat="51.9736115076" lon="-2.2144286614"><ele>16.96</ele><time>2014-06-25T11:27:07Z</time></trkpt><trkpt lat="51.9736429397" lon="-2.2143654618"><ele>16.48</ele><time>2014-06-25T11:27:12Z</time></trkpt><trkpt lat="51.9737319555" lon="-2.2141674813"><ele>16.48</ele><time>2014-06-25T11:27:26Z</time></trkpt><trkpt lat="51.9737510663" lon="-2.2141299304"><ele>16.48</ele><time>2014-06-25T11:27:29Z</time></trkpt><trkpt lat="51.9737730268" lon="-2.2140766215"><ele>16.48</ele><time>2014-06-25T11:27:33Z</time></trkpt><trkpt lat="51.9737913832" lon="-2.2140011005"><ele>16.00</ele><time>2014-06-25T11:27:38Z</time></trkpt><trkpt lat="51.9738410879" lon="-2.2138393298"><ele>16.96</ele><time>2014-06-25T11:27:49Z</time></trkpt><trkpt lat="51.9738918822" lon="-2.2136847675"><ele>16.48</ele><time>2014-06-25T11:28:04Z</time></trkpt><trkpt lat="51.9739023596" lon="-2.2136572748"><ele>16.48</ele><time>2014-06-25T11:28:06Z</time></trkpt><trkpt lat="51.9739207160" lon="-2.2135757189"><ele>16.48</ele><time>2014-06-25T11:28:11Z</time></trkpt><trkpt lat="51.9739663973" lon="-2.2133993637"><ele>15.52</ele><time>2014-06-25T11:28:22Z</time></trkpt><trkpt lat="51.9740010984" lon="-2.2132769041"><ele>16.00</ele><time>2014-06-25T11:28:30Z</time></trkpt><trkpt lat="51.9740201253" lon="-2.2131763212"><ele>16.00</ele><time>2014-06-25T11:28:36Z</time></trkpt><trkpt lat="51.9740413316" lon="-2.2131106909"><ele>16.00</ele><time>2014-06-25T11:28:41Z</time></trkpt><trkpt lat="51.9740701653" lon="-2.2130552027"><ele>16.00</ele><time>2014-06-25T11:28:52Z</time></trkpt><trkpt lat="51.9740648009" lon="-2.2130573820"><ele>15.52</ele><time>2014-06-25T11:29:04Z</time></trkpt><trkpt lat="51.9740626216" lon="-2.2130591422"><ele>16.00</ele><time>2014-06-25T11:29:18Z</time></trkpt><trkpt lat="51.9740622863" lon="-2.2130382713"><ele>16.00</ele><time>2014-06-25T11:29:29Z</time></trkpt><trkpt lat="51.9740593527" lon="-2.2130447254"><ele>16.00</ele><time>2014-06-25T11:29:44Z</time></trkpt><trkpt lat="51.9740774576" lon="-2.2129951045"><ele>16.00</ele><time>2014-06-25T11:29:57Z</time></trkpt><trkpt lat="51.9740908686" lon="-2.2129635885"><ele>16.00</ele><time>2014-06-25T11:30:11Z</time></trkpt><trkpt lat="51.9740923773" lon="-2.2129603196"><ele>16.48</ele><time>2014-06-25T11:30:31Z</time></trkpt><trkpt lat="51.9740948081" lon="-2.2129497584"><ele>16.00</ele><time>2014-06-25T11:30:50Z</time></trkpt><trkpt lat="51.9740950596" lon="-2.2129485849"><ele>16.00</ele><time>2014-06-25T11:31:14Z</time></trkpt><trkpt lat="51.9740920421" lon="-2.2129483335"><ele>16.00</ele><time>2014-06-25T11:31:41Z</time></trkpt><trkpt lat="51.9740907848" lon="-2.2129486687"><ele>16.00</ele><time>2014-06-25T11:32:08Z</time></trkpt><trkpt lat="51.9740829896" lon="-2.2128242813"><ele>16.00</ele><time>2014-06-25T11:32:26Z</time></trkpt><trkpt lat="51.9740700815" lon="-2.2127040010"><ele>16.00</ele><time>2014-06-25T11:32:41Z</time></trkpt><trkpt lat="51.9740630407" lon="-2.2125766799"><ele>15.04</ele><time>2014-06-25T11:32:54Z</time></trkpt><trkpt lat="51.9740305189" lon="-2.2124247998"><ele>14.56</ele><time>2014-06-25T11:33:06Z</time></trkpt><trkpt lat="51.9739891961" lon="-2.2122677229"><ele>15.04</ele><time>2014-06-25T11:33:20Z</time></trkpt><trkpt lat="51.9739292655" lon="-2.2120483685"><ele>15.04</ele><time>2014-06-25T11:33:36Z</time></trkpt><trkpt lat="51.9739016052" lon="-2.2119616158"><ele>14.56</ele><time>2014-06-25T11:33:44Z</time></trkpt><trkpt lat="51.9738310296" lon="-2.2117473744"><ele>15.04</ele><time>2014-06-25T11:34:01Z</time></trkpt><trkpt lat="51.9737960771" lon="-2.2115565185"><ele>14.56</ele><time>2014-06-25T11:34:15Z</time></trkpt><trkpt lat="51.9738113321" lon="-2.2113888804"><ele>15.04</ele><time>2014-06-25T11:34:28Z</time></trkpt><trkpt lat="51.9738306943" lon="-2.2111652512"><ele>14.56</ele><time>2014-06-25T11:34:42Z</time></trkpt><trkpt lat="51.9738531578" lon="-2.2109653428"><ele>13.60</ele><time>2014-06-25T11:34:55Z</time></trkpt><trkpt lat="51.9738931395" lon="-2.2107336670"><ele>14.08</ele><time>2014-06-25T11:35:08Z</time></trkpt><trkpt lat="51.9739204645" lon="-2.2104867361"><ele>14.08</ele><time>2014-06-25T11:35:22Z</time></trkpt><trkpt lat="51.9739259966" lon="-2.2104449943"><ele>14.08</ele><time>2014-06-25T11:35:24Z</time></trkpt><trkpt lat="51.9739757851" lon="-2.2102116421"><ele>13.60</ele><time>2014-06-25T11:35:36Z</time></trkpt><trkpt lat="51.9740262441" lon="-2.2100171819"><ele>14.08</ele><time>2014-06-25T11:35:48Z</time></trkpt><trkpt lat="51.9740399905" lon="-2.2099074628"><ele>13.60</ele><time>2014-06-25T11:35:54Z</time></trkpt><trkpt lat="51.9740569219" lon="-2.2097474523"><ele>14.08</ele><time>2014-06-25T11:36:04Z</time></trkpt><trkpt lat="51.9740914553" lon="-2.2095372342"><ele>14.08</ele><time>2014-06-25T11:36:16Z</time></trkpt><trkpt lat="51.9740999211" lon="-2.2094658203"><ele>13.60</ele><time>2014-06-25T11:36:20Z</time></trkpt><trkpt lat="51.9741078839" lon="-2.2094065603"><ele>13.60</ele><time>2014-06-25T11:36:24Z</time></trkpt><trkpt lat="51.9741373044" lon="-2.2091844399"><ele>14.08</ele><time>2014-06-25T11:36:39Z</time></trkpt><trkpt lat="51.9741514698" lon="-2.2089877166"><ele>13.60</ele><time>2014-06-25T11:36:53Z</time></trkpt><trkpt lat="51.9741430879" lon="-2.2088431288"><ele>14.08</ele><time>2014-06-25T11:37:04Z</time></trkpt><trkpt lat="51.9741379749" lon="-2.2088126186"><ele>13.60</ele><time>2014-06-25T11:37:06Z</time></trkpt><trkpt lat="51.9741276652" lon="-2.2087889817"><ele>13.60</ele><time>2014-06-25T11:37:08Z</time></trkpt><trkpt lat="51.9740133360" lon="-2.2086347546"><ele>14.08</ele><time>2014-06-25T11:37:21Z</time></trkpt><trkpt lat="51.9739846699" lon="-2.2085614130"><ele>14.08</ele><time>2014-06-25T11:37:31Z</time></trkpt><trkpt lat="51.9739558361" lon="-2.2085278016"><ele>14.08</ele><time>2014-06-25T11:37:34Z</time></trkpt><trkpt lat="51.9738834165" lon="-2.2084041685"><ele>13.60</ele><time>2014-06-25T11:37:48Z</time></trkpt><trkpt lat="51.9738392439" lon="-2.2083409689"><ele>14.08</ele><time>2014-06-25T11:37:55Z</time></trkpt><trkpt lat="51.9737238251" lon="-2.2081429046"><ele>13.60</ele><time>2014-06-25T11:38:08Z</time></trkpt><trkpt lat="51.9736472145" lon="-2.2080224566"><ele>14.08</ele><time>2014-06-25T11:38:18Z</time></trkpt><trkpt lat="51.9735299516" lon="-2.2078846581"><ele>14.08</ele><time>2014-06-25T11:38:33Z</time></trkpt><trkpt lat="51.9735160377" lon="-2.2078570817"><ele>14.08</ele><time>2014-06-25T11:38:36Z</time></trkpt><trkpt lat="51.9734115154" lon="-2.2077401541"><ele>14.08</ele><time>2014-06-25T11:38:49Z</time></trkpt><trkpt lat="51.9733885489" lon="-2.2077217977"><ele>14.08</ele><time>2014-06-25T11:38:51Z</time></trkpt><trkpt lat="51.9732441287" lon="-2.2075750306"><ele>13.60</ele><time>2014-06-25T11:39:06Z</time></trkpt><trkpt lat="51.9732404407" lon="-2.2075723484"><ele>14.08</ele><time>2014-06-25T11:39:07Z</time></trkpt><trkpt lat="51.9731090125" lon="-2.2074295208"><ele>14.08</ele><time>2014-06-25T11:39:23Z</time></trkpt><trkpt lat="51.9730678573" lon="-2.2073752899"><ele>14.56</ele><time>2014-06-25T11:39:38Z</time></trkpt><trkpt lat="51.9729985390" lon="-2.2072795685"><ele>14.08</ele><time>2014-06-25T11:39:54Z</time></trkpt><trkpt lat="51.9728701282" lon="-2.2070679255"><ele>14.08</ele><time>2014-06-25T11:40:10Z</time></trkpt><trkpt lat="51.9727756642" lon="-2.2068697773"><ele>15.04</ele><time>2014-06-25T11:40:24Z</time></trkpt><trkpt lat="51.9727038313" lon="-2.2067165561"><ele>15.52</ele><time>2014-06-25T11:40:36Z</time></trkpt><trkpt lat="51.9726753328" lon="-2.2066661809"><ele>15.04</ele><time>2014-06-25T11:40:40Z</time></trkpt><trkpt lat="51.9725730736" lon="-2.2064885683"><ele>15.52</ele><time>2014-06-25T11:40:56Z</time></trkpt><trkpt lat="51.9725441560" lon="-2.2064067610"><ele>15.04</ele><time>2014-06-25T11:41:11Z</time></trkpt><trkpt lat="51.9725293200" lon="-2.2063571401"><ele>15.04</ele><time>2014-06-25T11:41:15Z</time></trkpt><trkpt lat="51.9724988937" lon="-2.2063252889"><ele>15.52</ele><time>2014-06-25T11:41:18Z</time></trkpt><trkpt lat="51.9723881688" lon="-2.2061636858"><ele>15.04</ele><time>2014-06-25T11:41:31Z</time></trkpt><trkpt lat="51.9722980633" lon="-2.2059962153"><ele>15.04</ele><time>2014-06-25T11:41:46Z</time></trkpt><trkpt lat="51.9723012485" lon="-2.2059920244"><ele>15.04</ele><time>2014-06-25T11:41:58Z</time></trkpt><trkpt lat="51.9722895138" lon="-2.2059695609"><ele>15.04</ele><time>2014-06-25T11:42:00Z</time></trkpt><trkpt lat="51.9722726662" lon="-2.2059413977"><ele>15.04</ele><time>2014-06-25T11:42:02Z</time></trkpt><trkpt lat="51.9722376298" lon="-2.2058694810"><ele>15.04</ele><time>2014-06-25T11:42:06Z</time></trkpt><trkpt lat="51.9721185230" lon="-2.2056817263"><ele>15.52</ele><time>2014-06-25T11:42:19Z</time></trkpt><trkpt lat="51.9720023498" lon="-2.2054799739"><ele>15.04</ele><time>2014-06-25T11:42:33Z</time></trkpt><trkpt lat="51.9719811436" lon="-2.2054502182"><ele>15.52</ele><time>2014-06-25T11:42:35Z</time></trkpt><trkpt lat="51.9718865119" lon="-2.2052927222"><ele>15.52</ele><time>2014-06-25T11:42:49Z</time></trkpt><trkpt lat="51.9718207978" lon="-2.2053011879"><ele>16.00</ele><time>2014-06-25T11:43:02Z</time></trkpt><trkpt lat="51.9718168583" lon="-2.2051767167"><ele>16.00</ele><time>2014-06-25T11:43:10Z</time></trkpt><trkpt lat="51.9717879407" lon="-2.2051260900"><ele>15.52</ele><time>2014-06-25T11:43:14Z</time></trkpt><trkpt lat="51.9717094023" lon="-2.2049896326"><ele>15.52</ele><time>2014-06-25T11:43:24Z</time></trkpt><trkpt lat="51.9715975877" lon="-2.2048434522"><ele>15.04</ele><time>2014-06-25T11:43:35Z</time></trkpt><trkpt lat="51.9714900479" lon="-2.2047599684"><ele>15.04</ele><time>2014-06-25T11:43:45Z</time></trkpt><trkpt lat="51.9714640640" lon="-2.2047313023"><ele>15.04</ele><time>2014-06-25T11:43:48Z</time></trkpt><trkpt lat="51.9713098370" lon="-2.2045551986"><ele>14.56</ele><time>2014-06-25T11:44:04Z</time></trkpt><trkpt lat="51.9712727889" lon="-2.2044939268"><ele>13.60</ele><time>2014-06-25T11:44:09Z</time></trkpt><trkpt lat="51.9711692724" lon="-2.2042744048"><ele>13.12</ele><time>2014-06-25T11:44:20Z</time></trkpt><trkpt lat="51.9710341562" lon="-2.2040910926"><ele>13.60</ele><time>2014-06-25T11:44:35Z</time></trkpt><trkpt lat="51.9709544443" lon="-2.2039875761"><ele>15.04</ele><time>2014-06-25T11:44:46Z</time></trkpt><trkpt lat="51.9708812702" lon="-2.2038775217"><ele>14.08</ele><time>2014-06-25T11:44:57Z</time></trkpt><trkpt lat="51.9708523527" lon="-2.2038514540"><ele>14.08</ele><time>2014-06-25T11:45:00Z</time></trkpt><trkpt lat="51.9707842078" lon="-2.2037579957"><ele>14.56</ele><time>2014-06-25T11:45:07Z</time></trkpt><trkpt lat="51.9706417155" lon="-2.2035924532"><ele>14.56</ele><time>2014-06-25T11:45:19Z</time></trkpt><trkpt lat="51.9706036616" lon="-2.2035455983"><ele>14.56</ele><time>2014-06-25T11:45:23Z</time></trkpt><trkpt lat="51.9704938587" lon="-2.2033991665"><ele>14.56</ele><time>2014-06-25T11:45:34Z</time></trkpt><trkpt lat="51.9704520330" lon="-2.2033555806"><ele>14.56</ele><time>2014-06-25T11:45:38Z</time></trkpt><trkpt lat="51.9703347702" lon="-2.2032346297"><ele>14.08</ele><time>2014-06-25T11:45:50Z</time></trkpt><trkpt lat="51.9701736700" lon="-2.2030333802"><ele>14.56</ele><time>2014-06-25T11:46:06Z</time></trkpt><trkpt lat="51.9700834807" lon="-2.2029318754"><ele>15.04</ele><time>2014-06-25T11:46:16Z</time></trkpt><trkpt lat="51.9700110611" lon="-2.2028654069"><ele>14.56</ele><time>2014-06-25T11:46:22Z</time></trkpt><trkpt lat="51.9698759448" lon="-2.2027346492"><ele>14.08</ele><time>2014-06-25T11:46:35Z</time></trkpt><trkpt lat="51.9697534852" lon="-2.2025971860"><ele>13.60</ele><time>2014-06-25T11:46:49Z</time></trkpt><trkpt lat="51.9696365576" lon="-2.2023746464"><ele>14.08</ele><time>2014-06-25T11:47:03Z</time></trkpt><trkpt lat="51.9695667364" lon="-2.2022417095"><ele>14.56</ele><time>2014-06-25T11:47:16Z</time></trkpt><trkpt lat="51.9695331249" lon="-2.2022028174"><ele>13.60</ele><time>2014-06-25T11:47:29Z</time></trkpt><trkpt lat="51.9693991821" lon="-2.2019993886"><ele>14.56</ele><time>2014-06-25T11:47:41Z</time></trkpt><trkpt lat="51.9693449512" lon="-2.2019185871"><ele>14.08</ele><time>2014-06-25T11:47:47Z</time></trkpt><trkpt lat="51.9693120942" lon="-2.2018786892"><ele>14.08</ele><time>2014-06-25T11:47:50Z</time></trkpt><trkpt lat="51.9691788219" lon="-2.2017358616"><ele>14.08</ele><time>2014-06-25T11:48:03Z</time></trkpt><trkpt lat="51.9691690989" lon="-2.2017283179"><ele>14.56</ele><time>2014-06-25T11:48:04Z</time></trkpt><trkpt lat="51.9689779077" lon="-2.2015850712"><ele>14.56</ele><time>2014-06-25T11:48:20Z</time></trkpt><trkpt lat="51.9689549413" lon="-2.2015572432"><ele>14.08</ele><time>2014-06-25T11:48:22Z</time></trkpt><trkpt lat="51.9688087609" lon="-2.2014225461"><ele>14.08</ele><time>2014-06-25T11:48:36Z</time></trkpt><trkpt lat="51.9686618261" lon="-2.2013104800"><ele>14.08</ele><time>2014-06-25T11:48:49Z</time></trkpt><trkpt lat="51.9685230218" lon="-2.2012043651"><ele>14.56</ele><time>2014-06-25T11:49:02Z</time></trkpt><trkpt lat="51.9684030768" lon="-2.2011065483"><ele>14.56</ele><time>2014-06-25T11:49:16Z</time></trkpt><trkpt lat="51.9683776796" lon="-2.2010891140"><ele>14.08</ele><time>2014-06-25T11:49:18Z</time></trkpt><trkpt lat="51.9682831317" lon="-2.2009842563"><ele>14.08</ele><time>2014-06-25T11:49:27Z</time></trkpt><trkpt lat="51.9681622647" lon="-2.2008623835"><ele>14.08</ele><time>2014-06-25T11:49:38Z</time></trkpt><trkpt lat="51.9680556469" lon="-2.2007657401"><ele>14.56</ele><time>2014-06-25T11:49:49Z</time></trkpt><trkpt lat="51.9679661281" lon="-2.2006965056"><ele>14.56</ele><time>2014-06-25T11:49:58Z</time></trkpt><trkpt lat="51.9678357057" lon="-2.2006162908"><ele>14.56</ele><time>2014-06-25T11:50:10Z</time></trkpt><trkpt lat="51.9677041937" lon="-2.2005189769"><ele>14.08</ele><time>2014-06-25T11:50:25Z</time></trkpt><trkpt lat="51.9676702470" lon="-2.2004914843"><ele>14.56</ele><time>2014-06-25T11:50:30Z</time></trkpt><trkpt lat="51.9675513916" lon="-2.2003796697"><ele>14.56</ele><time>2014-06-25T11:50:43Z</time></trkpt><trkpt lat="51.9675368071" lon="-2.2003738023"><ele>14.56</ele><time>2014-06-25T11:50:54Z</time></trkpt><trkpt lat="51.9674400799" lon="-2.2002492473"><ele>14.56</ele><time>2014-06-25T11:51:07Z</time></trkpt><trkpt lat="51.9674053788" lon="-2.2002073377"><ele>14.56</ele><time>2014-06-25T11:51:11Z</time></trkpt><trkpt lat="51.9673391618" lon="-2.2001039889"><ele>15.04</ele><time>2014-06-25T11:51:23Z</time></trkpt><trkpt lat="51.9671949092" lon="-2.1998317447"><ele>16.00</ele><time>2014-06-25T11:51:39Z</time></trkpt><trkpt lat="51.9670852739" lon="-2.1995748393"><ele>15.04</ele><time>2014-06-25T11:51:54Z</time></trkpt><trkpt lat="51.9670025446" lon="-2.1993531380"><ele>15.04</ele><time>2014-06-25T11:52:09Z</time></trkpt><trkpt lat="51.9669820089" lon="-2.1992947161"><ele>15.52</ele><time>2014-06-25T11:52:13Z</time></trkpt><trkpt lat="51.9669494871" lon="-2.1992119867"><ele>15.52</ele><time>2014-06-25T11:52:19Z</time></trkpt><trkpt lat="51.9668641593" lon="-2.1990298480"><ele>15.04</ele><time>2014-06-25T11:52:33Z</time></trkpt><trkpt lat="51.9667959306" lon="-2.1988560911"><ele>15.52</ele><time>2014-06-25T11:52:45Z</time></trkpt><trkpt lat="51.9667106867" lon="-2.1986461245"><ele>15.52</ele><time>2014-06-25T11:52:58Z</time></trkpt><trkpt lat="51.9666573778" lon="-2.1985408477"><ele>15.52</ele><time>2014-06-25T11:53:07Z</time></trkpt><trkpt lat="51.9665880594" lon="-2.1984949149"><ele>15.52</ele><time>2014-06-25T11:53:20Z</time></trkpt><trkpt lat="51.9665862992" lon="-2.1984755527"><ele>16.00</ele><time>2014-06-25T11:53:35Z</time></trkpt></trkseg></trk></gpx>